<?xml version="1.0" encoding="UTF-8" standalone="no" ?><gpx xmlns="http://www.topografix.com/GPX/1/1" xmlns:gpxx="http://www.garmin.com/xmlschemas/GpxExtensions/v3" xmlns:wptx1="http://www.garmin.com/xmlschemas/WaypointExtension/v1" xmlns:gpxtpx="http://www.garmin.com/xmlschemas/TrackPointExtension/v1" creator="Astro 320" version="1.1" xmlns:xsi="http://www.w3.org/2001/XMLSchema-instance" xsi:schemaLocation="http://www.topografix.com/GPX/1/1 http://www.topografix.com/GPX/1/1/gpx.xsd http://www.garmin.com/xmlschemas/GpxExtensions/v3 http://www8.garmin.com/xmlschemas/GpxExtensionsv3.xsd http://www.garmin.com/xmlschemas/WaypointExtension/v1 http://www8.garmin.com/xmlschemas/WaypointExtensionv1.xsd http://www.garmin.com/xmlschemas/TrackPointExtension/v1 http://www.garmin.com/xmlschemas/TrackPointExtensionv1.xsd"><metadata><link href="http://www.garmin.com"><text>Garmin International</text></link><time>2026-08-20T09:59:47Z</time></metadata><trk><name>12741</name><extensions><gpxx:TrackExtension><gpxx:DisplayColor>Cyan</gpxx:DisplayColor></gpxx:TrackExtension></extensions><trkseg><trkpt lat="59.1084203403" lon="30.4742177110"><ele>64.55</ele><time>2026-08-20T06:44:48Z</time></trkpt><trkpt lat="59.1084181610" lon="30.4742182139"><ele>64.07</ele><time>2026-08-20T06:45:12Z</time></trkpt><trkpt lat="59.1084183287" lon="30.4742169566"><ele>64.07</ele><time>2026-08-20T06:45:39Z</time></trkpt><trkpt lat="59.1084210947" lon="30.4742123466"><ele>65.03</ele><time>2026-08-20T06:45:49Z</time></trkpt><trkpt lat="59.1084199212" lon="30.4742113408"><ele>65.03</ele><time>2026-08-20T06:45:52Z</time></trkpt><trkpt lat="59.1084029060" lon="30.4742426891"><ele>64.55</ele><time>2026-08-20T06:46:04Z</time></trkpt><trkpt lat="59.1083962843" lon="30.4742526636"><ele>64.55</ele><time>2026-08-20T06:46:21Z</time></trkpt><trkpt lat="59.1083966196" lon="30.4742534179"><ele>64.55</ele><time>2026-08-20T06:46:24Z</time></trkpt><trkpt lat="59.1084012296" lon="30.4742488079"><ele>64.55</ele><time>2026-08-20T06:46:38Z</time></trkpt><trkpt lat="59.1083978768" lon="30.4742584471"><ele>64.55</ele><time>2026-08-20T06:46:56Z</time></trkpt><trkpt lat="59.1083984636" lon="30.4742645659"><ele>64.07</ele><time>2026-08-20T06:47:20Z</time></trkpt><trkpt lat="59.1083956975" lon="30.4742583632"><ele>64.07</ele><time>2026-08-20T06:47:33Z</time></trkpt><trkpt lat="59.1083835438" lon="30.4742531665"><ele>64.07</ele><time>2026-08-20T06:47:49Z</time></trkpt><trkpt lat="59.1083834600" lon="30.4742651526"><ele>64.07</ele><time>2026-08-20T06:48:15Z</time></trkpt><trkpt lat="59.1083599906" lon="30.4742515739"><ele>64.07</ele><time>2026-08-20T06:48:38Z</time></trkpt><trkpt lat="59.1083612479" lon="30.4742571898"><ele>63.58</ele><time>2026-08-20T06:48:59Z</time></trkpt><trkpt lat="59.1083658580" lon="30.4742547590"><ele>63.58</ele><time>2026-08-20T06:49:09Z</time></trkpt><trkpt lat="59.1083372757" lon="30.4742648173"><ele>64.07</ele><time>2026-08-20T06:49:24Z</time></trkpt><trkpt lat="59.1083352640" lon="30.4742670804"><ele>64.07</ele><time>2026-08-20T06:49:34Z</time></trkpt><trkpt lat="59.1083301511" lon="30.4742683377"><ele>63.58</ele><time>2026-08-20T06:49:45Z</time></trkpt><trkpt lat="59.1083291452" lon="30.4742716905"><ele>63.58</ele><time>2026-08-20T06:50:05Z</time></trkpt><trkpt lat="59.1083304863" lon="30.4742658231"><ele>63.58</ele><time>2026-08-20T06:50:21Z</time></trkpt><trkpt lat="59.1083314084" lon="30.4742701817"><ele>63.58</ele><time>2026-08-20T06:50:41Z</time></trkpt><trkpt lat="59.1083300672" lon="30.4742592014"><ele>63.10</ele><time>2026-08-20T06:51:04Z</time></trkpt><trkpt lat="59.1083191708" lon="30.4742342234"><ele>63.10</ele><time>2026-08-20T06:51:28Z</time></trkpt><trkpt lat="59.1083177458" lon="30.4742112570"><ele>63.10</ele><time>2026-08-20T06:51:50Z</time></trkpt><trkpt lat="59.1082869843" lon="30.4741684254"><ele>62.62</ele><time>2026-08-20T06:52:12Z</time></trkpt><trkpt lat="59.1082752496" lon="30.4741322156"><ele>62.62</ele><time>2026-08-20T06:52:41Z</time></trkpt><trkpt lat="59.1082762554" lon="30.4741146136"><ele>62.14</ele><time>2026-08-20T06:53:07Z</time></trkpt><trkpt lat="59.1082769260" lon="30.4741247557"><ele>62.14</ele><time>2026-08-20T06:53:24Z</time></trkpt><trkpt lat="59.1082508583" lon="30.4740825947"><ele>62.14</ele><time>2026-08-20T06:53:36Z</time></trkpt><trkpt lat="59.1082482599" lon="30.4740755539"><ele>62.14</ele><time>2026-08-20T06:53:37Z</time></trkpt><trkpt lat="59.1081910953" lon="30.4740006197"><ele>62.14</ele><time>2026-08-20T06:53:49Z</time></trkpt><trkpt lat="59.1081750020" lon="30.4738675151"><ele>61.66</ele><time>2026-08-20T06:54:02Z</time></trkpt><trkpt lat="59.1081656981" lon="30.4737998731"><ele>61.66</ele><time>2026-08-20T06:54:14Z</time></trkpt><trkpt lat="59.1081544664" lon="30.4737190716"><ele>61.66</ele><time>2026-08-20T06:54:23Z</time></trkpt><trkpt lat="59.1080732457" lon="30.4735973664"><ele>61.66</ele><time>2026-08-20T06:54:36Z</time></trkpt><trkpt lat="59.1080499440" lon="30.4734692909"><ele>61.18</ele><time>2026-08-20T06:54:47Z</time></trkpt><trkpt lat="59.1080304980" lon="30.4732964560"><ele>61.18</ele><time>2026-08-20T06:54:58Z</time></trkpt><trkpt lat="59.1079839785" lon="30.4730986431"><ele>61.18</ele><time>2026-08-20T06:55:09Z</time></trkpt><trkpt lat="59.1079701483" lon="30.4730441608"><ele>61.18</ele><time>2026-08-20T06:55:15Z</time></trkpt><trkpt lat="59.1079196054" lon="30.4728801269"><ele>61.18</ele><time>2026-08-20T06:55:21Z</time></trkpt><trkpt lat="59.1078454256" lon="30.4727942962"><ele>61.18</ele><time>2026-08-20T06:55:34Z</time></trkpt><trkpt lat="59.1078384686" lon="30.4725518078"><ele>60.70</ele><time>2026-08-20T06:55:47Z</time></trkpt><trkpt lat="59.1078420728" lon="30.4724107403"><ele>60.70</ele><time>2026-08-20T06:55:53Z</time></trkpt><trkpt lat="59.1078756843" lon="30.4723960720"><ele>60.70</ele><time>2026-08-20T06:55:56Z</time></trkpt><trkpt lat="59.1079392191" lon="30.4722866043"><ele>60.70</ele><time>2026-08-20T06:56:06Z</time></trkpt><trkpt lat="59.1079369560" lon="30.4722279310"><ele>60.70</ele><time>2026-08-20T06:56:15Z</time></trkpt><trkpt lat="59.1078720801" lon="30.4720856063"><ele>60.70</ele><time>2026-08-20T06:56:26Z</time></trkpt><trkpt lat="59.1078429949" lon="30.4719466344"><ele>60.70</ele><time>2026-08-20T06:56:37Z</time></trkpt><trkpt lat="59.1078440007" lon="30.4718919005"><ele>60.70</ele><time>2026-08-20T06:56:40Z</time></trkpt><trkpt lat="59.1078206152" lon="30.4717088398"><ele>60.70</ele><time>2026-08-20T06:56:50Z</time></trkpt><trkpt lat="59.1078057792" lon="30.4715821892"><ele>60.70</ele><time>2026-08-20T06:57:03Z</time></trkpt><trkpt lat="59.1077957209" lon="30.4714722186"><ele>60.22</ele><time>2026-08-20T06:57:14Z</time></trkpt><trkpt lat="59.1078026779" lon="30.4713653494"><ele>60.22</ele><time>2026-08-20T06:57:24Z</time></trkpt><trkpt lat="59.1078693978" lon="30.4712283891"><ele>60.22</ele><time>2026-08-20T06:57:36Z</time></trkpt><trkpt lat="59.1078453418" lon="30.4708620999"><ele>60.22</ele><time>2026-08-20T06:57:48Z</time></trkpt><trkpt lat="59.1077832319" lon="30.4703723453"><ele>59.74</ele><time>2026-08-20T06:58:00Z</time></trkpt><trkpt lat="59.1077622771" lon="30.4701801483"><ele>59.74</ele><time>2026-08-20T06:58:13Z</time></trkpt><trkpt lat="59.1077543981" lon="30.4699621350"><ele>59.74</ele><time>2026-08-20T06:58:23Z</time></trkpt><trkpt lat="59.1077350359" lon="30.4698737059"><ele>59.74</ele><time>2026-08-20T06:58:34Z</time></trkpt><trkpt lat="59.1077077109" lon="30.4697833490"><ele>59.74</ele><time>2026-08-20T06:58:41Z</time></trkpt><trkpt lat="59.1076554917" lon="30.4695522599"><ele>59.74</ele><time>2026-08-20T06:58:54Z</time></trkpt><trkpt lat="59.1076478641" lon="30.4695281200"><ele>59.74</ele><time>2026-08-20T06:58:56Z</time></trkpt><trkpt lat="59.1075786296" lon="30.4693250265"><ele>59.26</ele><time>2026-08-20T06:59:09Z</time></trkpt><trkpt lat="59.1074870154" lon="30.4691371042"><ele>59.26</ele><time>2026-08-20T06:59:19Z</time></trkpt><trkpt lat="59.1074207146" lon="30.4689567257"><ele>59.26</ele><time>2026-08-20T06:59:32Z</time></trkpt><trkpt lat="59.1074305214" lon="30.4688128084"><ele>59.26</ele><time>2026-08-20T06:59:44Z</time></trkpt><trkpt lat="59.1074283421" lon="30.4687929433"><ele>59.26</ele><time>2026-08-20T06:59:45Z</time></trkpt><trkpt lat="59.1074203793" lon="30.4686931986"><ele>59.26</ele><time>2026-08-20T06:59:49Z</time></trkpt><trkpt lat="59.1074515600" lon="30.4685274046"><ele>59.26</ele><time>2026-08-20T07:00:03Z</time></trkpt><trkpt lat="59.1074620374" lon="30.4684445914"><ele>58.78</ele><time>2026-08-20T07:00:06Z</time></trkpt><trkpt lat="59.1074948944" lon="30.4682722595"><ele>58.78</ele><time>2026-08-20T07:00:17Z</time></trkpt><trkpt lat="59.1074721795" lon="30.4679925554"><ele>58.78</ele><time>2026-08-20T07:00:31Z</time></trkpt><trkpt lat="59.1074741073" lon="30.4677455407"><ele>58.78</ele><time>2026-08-20T07:00:45Z</time></trkpt><trkpt lat="59.1074573435" lon="30.4675412737"><ele>58.78</ele><time>2026-08-20T07:00:56Z</time></trkpt><trkpt lat="59.1074711736" lon="30.4672861286"><ele>58.78</ele><time>2026-08-20T07:01:09Z</time></trkpt><trkpt lat="59.1074394900" lon="30.4670588113"><ele>58.30</ele><time>2026-08-20T07:01:22Z</time></trkpt><trkpt lat="59.1074289288" lon="30.4668523651"><ele>58.30</ele><time>2026-08-20T07:01:33Z</time></trkpt><trkpt lat="59.1074165236" lon="30.4667304922"><ele>58.30</ele><time>2026-08-20T07:01:45Z</time></trkpt><trkpt lat="59.1073854268" lon="30.4665224534"><ele>58.30</ele><time>2026-08-20T07:01:58Z</time></trkpt><trkpt lat="59.1073655616" lon="30.4662114009"><ele>58.30</ele><time>2026-08-20T07:02:11Z</time></trkpt><trkpt lat="59.1072976682" lon="30.4659327026"><ele>57.34</ele><time>2026-08-20T07:02:25Z</time></trkpt><trkpt lat="59.1072744504" lon="30.4657590296"><ele>57.34</ele><time>2026-08-20T07:02:37Z</time></trkpt><trkpt lat="59.1072891187" lon="30.4655502364"><ele>57.34</ele><time>2026-08-20T07:02:48Z</time></trkpt><trkpt lat="59.1072649788" lon="30.4653897230"><ele>57.34</ele><time>2026-08-20T07:02:59Z</time></trkpt><trkpt lat="59.1072419286" lon="30.4651589692"><ele>57.34</ele><time>2026-08-20T07:03:10Z</time></trkpt><trkpt lat="59.1072626319" lon="30.4650916625"><ele>57.34</ele><time>2026-08-20T07:03:27Z</time></trkpt><trkpt lat="59.1072661523" lon="30.4650862981"><ele>57.34</ele><time>2026-08-20T07:03:33Z</time></trkpt><trkpt lat="59.1072125081" lon="30.4651054926"><ele>57.34</ele><time>2026-08-20T07:03:44Z</time></trkpt><trkpt lat="59.1071881168" lon="30.4650950991"><ele>57.34</ele><time>2026-08-20T07:03:49Z</time></trkpt><trkpt lat="59.1071208939" lon="30.4650946800"><ele>57.34</ele><time>2026-08-20T07:03:56Z</time></trkpt><trkpt lat="59.1070176288" lon="30.4651513416"><ele>57.34</ele><time>2026-08-20T07:04:09Z</time></trkpt><trkpt lat="59.1069651581" lon="30.4650925845"><ele>57.34</ele><time>2026-08-20T07:04:19Z</time></trkpt><trkpt lat="59.1069499869" lon="30.4650327377"><ele>57.34</ele><time>2026-08-20T07:04:37Z</time></trkpt><trkpt lat="59.1069468856" lon="30.4650371801"><ele>57.34</ele><time>2026-08-20T07:04:57Z</time></trkpt><trkpt lat="59.1069362406" lon="30.4650676902"><ele>57.34</ele><time>2026-08-20T07:05:01Z</time></trkpt><trkpt lat="59.1069083288" lon="30.4651275370"><ele>57.34</ele><time>2026-08-20T07:05:13Z</time></trkpt><trkpt lat="59.1069073230" lon="30.4651280399"><ele>57.34</ele><time>2026-08-20T07:05:15Z</time></trkpt><trkpt lat="59.1068621445" lon="30.4651479051"><ele>57.34</ele><time>2026-08-20T07:05:21Z</time></trkpt><trkpt lat="59.1067182273" lon="30.4651768226"><ele>57.34</ele><time>2026-08-20T07:05:33Z</time></trkpt><trkpt lat="59.1065992881" lon="30.4652613960"><ele>57.34</ele><time>2026-08-20T07:05:45Z</time></trkpt><trkpt lat="59.1065094341" lon="30.4653302953"><ele>57.34</ele><time>2026-08-20T07:05:53Z</time></trkpt><trkpt lat="59.1064553708" lon="30.4653325584"><ele>57.34</ele><time>2026-08-20T07:05:59Z</time></trkpt><trkpt lat="59.1063631698" lon="30.4653153755"><ele>57.34</ele><time>2026-08-20T07:06:12Z</time></trkpt><trkpt lat="59.1063724738" lon="30.4653152078"><ele>56.86</ele><time>2026-08-20T07:06:35Z</time></trkpt><trkpt lat="59.1063595656" lon="30.4653431196"><ele>56.86</ele><time>2026-08-20T07:06:57Z</time></trkpt><trkpt lat="59.1063459031" lon="30.4653178900"><ele>56.86</ele><time>2026-08-20T07:07:16Z</time></trkpt><trkpt lat="59.1063786764" lon="30.4653251823"><ele>56.86</ele><time>2026-08-20T07:07:40Z</time></trkpt><trkpt lat="59.1064126231" lon="30.4654080793"><ele>56.86</ele><time>2026-08-20T07:07:51Z</time></trkpt><trkpt lat="59.1064208373" lon="30.4654775653"><ele>56.86</ele><time>2026-08-20T07:07:57Z</time></trkpt><trkpt lat="59.1064873058" lon="30.4655904695"><ele>56.86</ele><time>2026-08-20T07:08:09Z</time></trkpt><trkpt lat="59.1065189056" lon="30.4658252466"><ele>56.86</ele><time>2026-08-20T07:08:23Z</time></trkpt><trkpt lat="59.1065306403" lon="30.4659260809"><ele>56.86</ele><time>2026-08-20T07:08:31Z</time></trkpt><trkpt lat="59.1065383516" lon="30.4661181942"><ele>56.86</ele><time>2026-08-20T07:08:42Z</time></trkpt><trkpt lat="59.1064696200" lon="30.4663100559"><ele>56.86</ele><time>2026-08-20T07:08:56Z</time></trkpt><trkpt lat="59.1064671893" lon="30.4665066954"><ele>56.86</ele><time>2026-08-20T07:09:07Z</time></trkpt><trkpt lat="59.1064787563" lon="30.4665763490"><ele>56.86</ele><time>2026-08-20T07:09:12Z</time></trkpt><trkpt lat="59.1065235157" lon="30.4667542130"><ele>56.86</ele><time>2026-08-20T07:09:26Z</time></trkpt><trkpt lat="59.1065670177" lon="30.4669586476"><ele>56.86</ele><time>2026-08-20T07:09:38Z</time></trkpt><trkpt lat="59.1065742262" lon="30.4671172332"><ele>56.86</ele><time>2026-08-20T07:09:49Z</time></trkpt><trkpt lat="59.1065639164" lon="30.4673242662"><ele>56.86</ele><time>2026-08-20T07:10:02Z</time></trkpt><trkpt lat="59.1065980308" lon="30.4674509168"><ele>56.86</ele><time>2026-08-20T07:10:12Z</time></trkpt><trkpt lat="59.1066269483" lon="30.4674900603"><ele>56.86</ele><time>2026-08-20T07:10:23Z</time></trkpt><trkpt lat="59.1066129506" lon="30.4675620608"><ele>56.86</ele><time>2026-08-20T07:10:28Z</time></trkpt><trkpt lat="59.1066422872" lon="30.4677912220"><ele>56.86</ele><time>2026-08-20T07:10:41Z</time></trkpt><trkpt lat="59.1066469811" lon="30.4678626359"><ele>56.86</ele><time>2026-08-20T07:10:44Z</time></trkpt><trkpt lat="59.1066735517" lon="30.4680382367"><ele>56.86</ele><time>2026-08-20T07:10:54Z</time></trkpt><trkpt lat="59.1066259425" lon="30.4682219680"><ele>56.86</ele><time>2026-08-20T07:11:06Z</time></trkpt><trkpt lat="59.1066312231" lon="30.4682513047"><ele>56.86</ele><time>2026-08-20T07:11:08Z</time></trkpt><trkpt lat="59.1066299658" lon="30.4683993291"><ele>56.86</ele><time>2026-08-20T07:11:15Z</time></trkpt><trkpt lat="59.1066125315" lon="30.4686213657"><ele>56.86</ele><time>2026-08-20T07:11:22Z</time></trkpt><trkpt lat="59.1066135373" lon="30.4688505270"><ele>56.86</ele><time>2026-08-20T07:11:36Z</time></trkpt><trkpt lat="59.1066075861" lon="30.4688516166"><ele>56.86</ele><time>2026-08-20T07:12:02Z</time></trkpt><trkpt lat="59.1066010483" lon="30.4688640218"><ele>56.86</ele><time>2026-08-20T07:12:22Z</time></trkpt><trkpt lat="59.1066672653" lon="30.4689304065"><ele>56.86</ele><time>2026-08-20T07:12:37Z</time></trkpt><trkpt lat="59.1067647468" lon="30.4689594079"><ele>56.86</ele><time>2026-08-20T07:12:49Z</time></trkpt><trkpt lat="59.1068492364" lon="30.4691225197"><ele>56.86</ele><time>2026-08-20T07:13:01Z</time></trkpt><trkpt lat="59.1069170460" lon="30.4692972824"><ele>56.86</ele><time>2026-08-20T07:13:13Z</time></trkpt><trkpt lat="59.1069218237" lon="30.4693607334"><ele>56.86</ele><time>2026-08-20T07:13:16Z</time></trkpt><trkpt lat="59.1068953369" lon="30.4695452191"><ele>56.86</ele><time>2026-08-20T07:13:30Z</time></trkpt><trkpt lat="59.1068891343" lon="30.4696416948"><ele>56.86</ele><time>2026-08-20T07:13:42Z</time></trkpt><trkpt lat="59.1068796627" lon="30.4696740489"><ele>56.86</ele><time>2026-08-20T07:13:43Z</time></trkpt><trkpt lat="59.1068537626" lon="30.4698604625"><ele>56.86</ele><time>2026-08-20T07:13:54Z</time></trkpt><trkpt lat="59.1068478953" lon="30.4700143542"><ele>56.86</ele><time>2026-08-20T07:14:06Z</time></trkpt><trkpt lat="59.1068553552" lon="30.4701823276"><ele>56.37</ele><time>2026-08-20T07:14:17Z</time></trkpt><trkpt lat="59.1068851110" lon="30.4702388216"><ele>56.37</ele><time>2026-08-20T07:14:23Z</time></trkpt><trkpt lat="59.1069034673" lon="30.4705098085"><ele>56.37</ele><time>2026-08-20T07:14:36Z</time></trkpt><trkpt lat="59.1069459636" lon="30.4707297496"><ele>56.37</ele><time>2026-08-20T07:14:46Z</time></trkpt><trkpt lat="59.1069626436" lon="30.4708067793"><ele>56.37</ele><time>2026-08-20T07:14:57Z</time></trkpt><trkpt lat="59.1070013680" lon="30.4709419794"><ele>56.37</ele><time>2026-08-20T07:15:08Z</time></trkpt><trkpt lat="59.1069960874" lon="30.4709675442"><ele>56.37</ele><time>2026-08-20T07:15:09Z</time></trkpt><trkpt lat="59.1069984343" lon="30.4711372778"><ele>55.89</ele><time>2026-08-20T07:15:21Z</time></trkpt><trkpt lat="59.1070010327" lon="30.4712540377"><ele>55.89</ele><time>2026-08-20T07:15:27Z</time></trkpt><trkpt lat="59.1069660801" lon="30.4714459833"><ele>55.89</ele><time>2026-08-20T07:15:37Z</time></trkpt><trkpt lat="59.1069378331" lon="30.4717858694"><ele>55.89</ele><time>2026-08-20T07:15:51Z</time></trkpt><trkpt lat="59.1069510765" lon="30.4719621409"><ele>55.89</ele><time>2026-08-20T07:15:59Z</time></trkpt><trkpt lat="59.1069676727" lon="30.4721723590"><ele>55.41</ele><time>2026-08-20T07:16:11Z</time></trkpt><trkpt lat="59.1070087440" lon="30.4723274242"><ele>55.41</ele><time>2026-08-20T07:16:27Z</time></trkpt><trkpt lat="59.1070102528" lon="30.4724088963"><ele>55.41</ele><time>2026-08-20T07:16:52Z</time></trkpt><trkpt lat="59.1070368234" lon="30.4723984189"><ele>55.41</ele><time>2026-08-20T07:17:16Z</time></trkpt><trkpt lat="59.1070411820" lon="30.4723920487"><ele>55.41</ele><time>2026-08-20T07:17:44Z</time></trkpt><trkpt lat="59.1070721112" lon="30.4724738561"><ele>55.89</ele><time>2026-08-20T07:17:58Z</time></trkpt><trkpt lat="59.1070938203" lon="30.4726505466"><ele>55.89</ele><time>2026-08-20T07:18:11Z</time></trkpt><trkpt lat="59.1071150266" lon="30.4729080386"><ele>55.89</ele><time>2026-08-20T07:18:23Z</time></trkpt><trkpt lat="59.1071085725" lon="30.4729767703"><ele>55.89</ele><time>2026-08-20T07:18:26Z</time></trkpt><trkpt lat="59.1071404237" lon="30.4732153192"><ele>55.89</ele><time>2026-08-20T07:18:38Z</time></trkpt><trkpt lat="59.1071768012" lon="30.4734817799"><ele>55.41</ele><time>2026-08-20T07:18:53Z</time></trkpt><trkpt lat="59.1071983427" lon="30.4737020563"><ele>55.41</ele><time>2026-08-20T07:19:06Z</time></trkpt><trkpt lat="59.1072574351" lon="30.4738945886"><ele>55.41</ele><time>2026-08-20T07:19:18Z</time></trkpt><trkpt lat="59.1072660685" lon="30.4739025515"><ele>55.41</ele><time>2026-08-20T07:19:19Z</time></trkpt><trkpt lat="59.1072677448" lon="30.4740006197"><ele>55.41</ele><time>2026-08-20T07:19:23Z</time></trkpt><trkpt lat="59.1072635539" lon="30.4741663300"><ele>55.41</ele><time>2026-08-20T07:19:34Z</time></trkpt><trkpt lat="59.1072333790" lon="30.4742569383"><ele>55.41</ele><time>2026-08-20T07:19:56Z</time></trkpt><trkpt lat="59.1072245780" lon="30.4743349738"><ele>54.93</ele><time>2026-08-20T07:20:12Z</time></trkpt><trkpt lat="59.1072376538" lon="30.4744755384"><ele>54.93</ele><time>2026-08-20T07:20:23Z</time></trkpt><trkpt lat="59.1070866119" lon="30.4745328706"><ele>55.89</ele><time>2026-08-20T07:20:35Z</time></trkpt><trkpt lat="59.1070338897" lon="30.4745525680"><ele>55.89</ele><time>2026-08-20T07:20:39Z</time></trkpt><trkpt lat="59.1069828440" lon="30.4745651409"><ele>55.89</ele><time>2026-08-20T07:20:44Z</time></trkpt><trkpt lat="59.1068083327" lon="30.4746000934"><ele>55.89</ele><time>2026-08-20T07:20:58Z</time></trkpt><trkpt lat="59.1066790000" lon="30.4746280052"><ele>55.41</ele><time>2026-08-20T07:21:10Z</time></trkpt><trkpt lat="59.1065426264" lon="30.4746464454"><ele>55.41</ele><time>2026-08-20T07:21:22Z</time></trkpt><trkpt lat="59.1064920835" lon="30.4746765364"><ele>55.41</ele><time>2026-08-20T07:21:34Z</time></trkpt><trkpt lat="59.1064614058" lon="30.4746876005"><ele>55.41</ele><time>2026-08-20T07:21:49Z</time></trkpt><trkpt lat="59.1064202506" lon="30.4747205414"><ele>55.41</ele><time>2026-08-20T07:21:55Z</time></trkpt><trkpt lat="59.1063802689" lon="30.4747409094"><ele>55.41</ele><time>2026-08-20T07:22:00Z</time></trkpt><trkpt lat="59.1062952764" lon="30.4747386463"><ele>55.41</ele><time>2026-08-20T07:22:15Z</time></trkpt><trkpt lat="59.1062697116" lon="30.4747507162"><ele>55.41</ele><time>2026-08-20T07:22:22Z</time></trkpt><trkpt lat="59.1062506009" lon="30.4747326113"><ele>53.49</ele><time>2026-08-20T07:22:26Z</time></trkpt><trkpt lat="59.1062078532" lon="30.4747484531"><ele>54.93</ele><time>2026-08-20T07:22:37Z</time></trkpt><trkpt lat="59.1061997227" lon="30.4747356288"><ele>54.93</ele><time>2026-08-20T07:22:55Z</time></trkpt><trkpt lat="59.1062045842" lon="30.4747501295"><ele>54.93</ele><time>2026-08-20T07:23:18Z</time></trkpt><trkpt lat="59.1062029079" lon="30.4747419991"><ele>54.45</ele><time>2026-08-20T07:23:38Z</time></trkpt><trkpt lat="59.1062019859" lon="30.4747314379"><ele>54.45</ele><time>2026-08-20T07:24:00Z</time></trkpt><trkpt lat="59.1061903350" lon="30.4746782966"><ele>54.45</ele><time>2026-08-20T07:24:15Z</time></trkpt><trkpt lat="59.1061922628" lon="30.4745829105"><ele>54.45</ele><time>2026-08-20T07:24:28Z</time></trkpt><trkpt lat="59.1062036622" lon="30.4744199663"><ele>54.45</ele><time>2026-08-20T07:24:39Z</time></trkpt><trkpt lat="59.1062050033" lon="30.4743522406"><ele>54.45</ele><time>2026-08-20T07:24:44Z</time></trkpt><trkpt lat="59.1062002257" lon="30.4742160346"><ele>54.45</ele><time>2026-08-20T07:24:51Z</time></trkpt><trkpt lat="59.1061732359" lon="30.4741693474"><ele>54.45</ele><time>2026-08-20T07:24:55Z</time></trkpt><trkpt lat="59.1061755829" lon="30.4740079120"><ele>53.01</ele><time>2026-08-20T07:25:07Z</time></trkpt><trkpt lat="59.1061622556" lon="30.4739178903"><ele>53.01</ele><time>2026-08-20T07:25:13Z</time></trkpt><trkpt lat="59.1061411332" lon="30.4739039764"><ele>53.01</ele><time>2026-08-20T07:25:23Z</time></trkpt><trkpt lat="59.1061060131" lon="30.4737005476"><ele>53.01</ele><time>2026-08-20T07:25:34Z</time></trkpt><trkpt lat="59.1060890816" lon="30.4736065026"><ele>53.01</ele><time>2026-08-20T07:25:42Z</time></trkpt><trkpt lat="59.1060719825" lon="30.4734064266"><ele>53.01</ele><time>2026-08-20T07:25:52Z</time></trkpt><trkpt lat="59.1060644388" lon="30.4732742440"><ele>53.01</ele><time>2026-08-20T07:26:02Z</time></trkpt><trkpt lat="59.1060770955" lon="30.4731080309"><ele>52.53</ele><time>2026-08-20T07:26:13Z</time></trkpt><trkpt lat="59.1060799453" lon="30.4729314242"><ele>52.53</ele><time>2026-08-20T07:26:24Z</time></trkpt><trkpt lat="59.1060684621" lon="30.4728342779"><ele>52.53</ele><time>2026-08-20T07:26:34Z</time></trkpt><trkpt lat="59.1060593259" lon="30.4726386443"><ele>52.53</ele><time>2026-08-20T07:26:46Z</time></trkpt><trkpt lat="59.1060467530" lon="30.4724221397"><ele>52.05</ele><time>2026-08-20T07:26:58Z</time></trkpt><trkpt lat="59.1059763450" lon="30.4722723551"><ele>52.05</ele><time>2026-08-20T07:27:09Z</time></trkpt><trkpt lat="59.1059438232" lon="30.4722574353"><ele>52.05</ele><time>2026-08-20T07:27:12Z</time></trkpt><trkpt lat="59.1058751754" lon="30.4721464589"><ele>52.05</ele><time>2026-08-20T07:27:25Z</time></trkpt><trkpt lat="59.1058750916" lon="30.4719794914"><ele>52.05</ele><time>2026-08-20T07:27:33Z</time></trkpt><trkpt lat="59.1058773547" lon="30.4719346482"><ele>52.05</ele><time>2026-08-20T07:27:35Z</time></trkpt><trkpt lat="59.1058331821" lon="30.4717699438"><ele>51.57</ele><time>2026-08-20T07:27:45Z</time></trkpt><trkpt lat="59.1058330145" lon="30.4716858733"><ele>51.57</ele><time>2026-08-20T07:27:49Z</time></trkpt><trkpt lat="59.1058574058" lon="30.4715108592"><ele>51.57</ele><time>2026-08-20T07:28:00Z</time></trkpt><trkpt lat="59.1058431566" lon="30.4714167304"><ele>51.57</ele><time>2026-08-20T07:28:05Z</time></trkpt><trkpt lat="59.1058455035" lon="30.4713582247"><ele>51.57</ele><time>2026-08-20T07:28:08Z</time></trkpt><trkpt lat="59.1058418155" lon="30.4712627549"><ele>51.57</ele><time>2026-08-20T07:28:13Z</time></trkpt><trkpt lat="59.1058729962" lon="30.4710742459"><ele>51.57</ele><time>2026-08-20T07:28:24Z</time></trkpt><trkpt lat="59.1058433242" lon="30.4709556419"><ele>51.57</ele><time>2026-08-20T07:28:34Z</time></trkpt><trkpt lat="59.1058227886" lon="30.4709054343"><ele>51.09</ele><time>2026-08-20T07:28:41Z</time></trkpt><trkpt lat="59.1057999898" lon="30.4708388820"><ele>51.09</ele><time>2026-08-20T07:28:45Z</time></trkpt><trkpt lat="59.1057785321" lon="30.4707321804"><ele>51.09</ele><time>2026-08-20T07:28:55Z</time></trkpt><trkpt lat="59.1058060247" lon="30.4706849065"><ele>51.09</ele><time>2026-08-20T07:29:06Z</time></trkpt><trkpt lat="59.1058196034" lon="30.4706502054"><ele>51.09</ele><time>2026-08-20T07:29:14Z</time></trkpt><trkpt lat="59.1058774386" lon="30.4705836531"><ele>51.09</ele><time>2026-08-20T07:29:26Z</time></trkpt><trkpt lat="59.1059273947" lon="30.4704243131"><ele>50.61</ele><time>2026-08-20T07:29:38Z</time></trkpt><trkpt lat="59.1059555579" lon="30.4703714233"><ele>50.61</ele><time>2026-08-20T07:29:46Z</time></trkpt><trkpt lat="59.1059586592" lon="30.4702505562"><ele>50.61</ele><time>2026-08-20T07:29:55Z</time></trkpt><trkpt lat="59.1059556417" lon="30.4702013545"><ele>50.61</ele><time>2026-08-20T07:30:05Z</time></trkpt><trkpt lat="59.1059356928" lon="30.4700705130"><ele>50.61</ele><time>2026-08-20T07:30:17Z</time></trkpt><trkpt lat="59.1059152409" lon="30.4699762166"><ele>50.61</ele><time>2026-08-20T07:30:30Z</time></trkpt><trkpt lat="59.1058409773" lon="30.4698418546"><ele>50.61</ele><time>2026-08-20T07:30:42Z</time></trkpt><trkpt lat="59.1057457589" lon="30.4695903976"><ele>50.13</ele><time>2026-08-20T07:30:53Z</time></trkpt><trkpt lat="59.1057087947" lon="30.4694821872"><ele>50.13</ele><time>2026-08-20T07:31:04Z</time></trkpt><trkpt lat="59.1056537256" lon="30.4693251941"><ele>50.13</ele><time>2026-08-20T07:31:17Z</time></trkpt><trkpt lat="59.1056043562" lon="30.4691583104"><ele>50.13</ele><time>2026-08-20T07:31:28Z</time></trkpt><trkpt lat="59.1055911127" lon="30.4690614156"><ele>50.13</ele><time>2026-08-20T07:31:39Z</time></trkpt><trkpt lat="59.1055875923" lon="30.4689397942"><ele>49.65</ele><time>2026-08-20T07:31:50Z</time></trkpt><trkpt lat="59.1055936273" lon="30.4687833879"><ele>49.65</ele><time>2026-08-20T07:32:00Z</time></trkpt><trkpt lat="59.1055731755" lon="30.4686522949"><ele>49.16</ele><time>2026-08-20T07:32:11Z</time></trkpt><trkpt lat="59.1055592615" lon="30.4684520513"><ele>49.16</ele><time>2026-08-20T07:32:22Z</time></trkpt><trkpt lat="59.1055715829" lon="30.4682954773"><ele>49.16</ele><time>2026-08-20T07:32:33Z</time></trkpt><trkpt lat="59.1055790428" lon="30.4682157654"><ele>49.16</ele><time>2026-08-20T07:32:37Z</time></trkpt><trkpt lat="59.1055678111" lon="30.4680558387"><ele>49.16</ele><time>2026-08-20T07:32:50Z</time></trkpt><trkpt lat="59.1055171844" lon="30.4678906314"><ele>49.16</ele><time>2026-08-20T07:33:02Z</time></trkpt><trkpt lat="59.1054837406" lon="30.4677480552"><ele>49.16</ele><time>2026-08-20T07:33:16Z</time></trkpt><trkpt lat="59.1054609418" lon="30.4675308801"><ele>48.68</ele><time>2026-08-20T07:33:28Z</time></trkpt><trkpt lat="59.1054318566" lon="30.4673251882"><ele>48.68</ele><time>2026-08-20T07:33:40Z</time></trkpt><trkpt lat="59.1054169368" lon="30.4671197478"><ele>48.68</ele><time>2026-08-20T07:33:53Z</time></trkpt><trkpt lat="59.1054205410" lon="30.4669976234"><ele>48.68</ele><time>2026-08-20T07:34:03Z</time></trkpt><trkpt lat="59.1054076329" lon="30.4668889940"><ele>48.68</ele><time>2026-08-20T07:34:16Z</time></trkpt><trkpt lat="59.1054053698" lon="30.4668040015"><ele>48.68</ele><time>2026-08-20T07:34:26Z</time></trkpt><trkpt lat="59.1053992510" lon="30.4667253792"><ele>48.68</ele><time>2026-08-20T07:34:38Z</time></trkpt><trkpt lat="59.1053838283" lon="30.4666543007"><ele>48.68</ele><time>2026-08-20T07:34:49Z</time></trkpt><trkpt lat="59.1053577606" lon="30.4664896801"><ele>48.68</ele><time>2026-08-20T07:34:59Z</time></trkpt><trkpt lat="59.1053515580" lon="30.4663839005"><ele>48.68</ele><time>2026-08-20T07:35:10Z</time></trkpt><trkpt lat="59.1053395718" lon="30.4662339482"><ele>48.68</ele><time>2026-08-20T07:35:22Z</time></trkpt><trkpt lat="59.1053492110" lon="30.4661442619"><ele>48.68</ele><time>2026-08-20T07:35:32Z</time></trkpt><trkpt lat="59.1053207964" lon="30.4659964051"><ele>48.68</ele><time>2026-08-20T07:35:45Z</time></trkpt><trkpt lat="59.1053001769" lon="30.4658942297"><ele>47.72</ele><time>2026-08-20T07:36:08Z</time></trkpt><trkpt lat="59.1052643023" lon="30.4657363985"><ele>47.72</ele><time>2026-08-20T07:36:33Z</time></trkpt><trkpt lat="59.1052490473" lon="30.4656014498"><ele>47.72</ele><time>2026-08-20T07:36:54Z</time></trkpt><trkpt lat="59.1052234825" lon="30.4655675869"><ele>47.72</ele><time>2026-08-20T07:37:04Z</time></trkpt><trkpt lat="59.1051927209" lon="30.4655354843"><ele>47.72</ele><time>2026-08-20T07:37:14Z</time></trkpt><trkpt lat="59.1051476263" lon="30.4655212350"><ele>47.72</ele><time>2026-08-20T07:37:18Z</time></trkpt><trkpt lat="59.1050339676" lon="30.4655107576"><ele>47.72</ele><time>2026-08-20T07:37:28Z</time></trkpt><trkpt lat="59.1049711034" lon="30.4655369092"><ele>47.72</ele><time>2026-08-20T07:37:38Z</time></trkpt><trkpt lat="59.1049162019" lon="30.4655319639"><ele>47.72</ele><time>2026-08-20T07:37:50Z</time></trkpt><trkpt lat="59.1049063113" lon="30.4655424412"><ele>47.72</ele><time>2026-08-20T07:37:54Z</time></trkpt><trkpt lat="59.1048231628" lon="30.4656763840"><ele>47.72</ele><time>2026-08-20T07:38:05Z</time></trkpt><trkpt lat="59.1047924850" lon="30.4656989314"><ele>47.72</ele><time>2026-08-20T07:38:18Z</time></trkpt><trkpt lat="59.1047111806" lon="30.4657301120"><ele>47.72</ele><time>2026-08-20T07:38:28Z</time></trkpt><trkpt lat="59.1046381742" lon="30.4657221492"><ele>47.72</ele><time>2026-08-20T07:38:38Z</time></trkpt><trkpt lat="59.1045447160" lon="30.4657315370"><ele>47.72</ele><time>2026-08-20T07:38:48Z</time></trkpt><trkpt lat="59.1045023873" lon="30.4656834248"><ele>47.72</ele><time>2026-08-20T07:38:59Z</time></trkpt><trkpt lat="59.1044754814" lon="30.4656753782"><ele>47.72</ele><time>2026-08-20T07:39:09Z</time></trkpt><trkpt lat="59.1044332366" lon="30.4656983446"><ele>47.72</ele><time>2026-08-20T07:39:36Z</time></trkpt><trkpt lat="59.1044147965" lon="30.4657079838"><ele>47.72</ele><time>2026-08-20T07:39:54Z</time></trkpt><trkpt lat="59.1044077557" lon="30.4657028709"><ele>47.72</ele><time>2026-08-20T07:40:12Z</time></trkpt><trkpt lat="59.1044299677" lon="30.4658003524"><ele>47.72</ele><time>2026-08-20T07:40:37Z</time></trkpt><trkpt lat="59.1044602264" lon="30.4659974948"><ele>47.72</ele><time>2026-08-20T07:40:51Z</time></trkpt><trkpt lat="59.1044377629" lon="30.4661867581"><ele>47.72</ele><time>2026-08-20T07:41:03Z</time></trkpt><trkpt lat="59.1044391040" lon="30.4661960620"><ele>47.72</ele><time>2026-08-20T07:41:04Z</time></trkpt><trkpt lat="59.1045153793" lon="30.4663534742"><ele>47.72</ele><time>2026-08-20T07:41:17Z</time></trkpt><trkpt lat="59.1045535170" lon="30.4665708169"><ele>47.72</ele><time>2026-08-20T07:41:30Z</time></trkpt><trkpt lat="59.1045877151" lon="30.4667840526"><ele>47.72</ele><time>2026-08-20T07:41:44Z</time></trkpt><trkpt lat="59.1046218295" lon="30.4668783490"><ele>47.72</ele><time>2026-08-20T07:42:01Z</time></trkpt><trkpt lat="59.1046510823" lon="30.4669619165"><ele>47.72</ele><time>2026-08-20T07:42:20Z</time></trkpt><trkpt lat="59.1047289502" lon="30.4671093542"><ele>47.72</ele><time>2026-08-20T07:42:31Z</time></trkpt><trkpt lat="59.1046908125" lon="30.4672956839"><ele>47.72</ele><time>2026-08-20T07:42:45Z</time></trkpt><trkpt lat="59.1047041398" lon="30.4674582090"><ele>48.20</ele><time>2026-08-20T07:42:58Z</time></trkpt><trkpt lat="59.1047318839" lon="30.4675116017"><ele>48.20</ele><time>2026-08-20T07:43:09Z</time></trkpt><trkpt lat="59.1047245078" lon="30.4676255118"><ele>48.20</ele><time>2026-08-20T07:43:22Z</time></trkpt><trkpt lat="59.1047159582" lon="30.4677545931"><ele>48.20</ele><time>2026-08-20T07:43:36Z</time></trkpt><trkpt lat="59.1046977695" lon="30.4679716006"><ele>48.20</ele><time>2026-08-20T07:43:50Z</time></trkpt><trkpt lat="59.1046858672" lon="30.4680735245"><ele>48.20</ele><time>2026-08-20T07:43:56Z</time></trkpt><trkpt lat="59.1047184728" lon="30.4682376422"><ele>48.20</ele><time>2026-08-20T07:44:08Z</time></trkpt><trkpt lat="59.1047300398" lon="30.4683674779"><ele>48.20</ele><time>2026-08-20T07:44:22Z</time></trkpt><trkpt lat="59.1047333926" lon="30.4683986586"><ele>48.20</ele><time>2026-08-20T07:44:43Z</time></trkpt><trkpt lat="59.1047430318" lon="30.4684177693"><ele>49.65</ele><time>2026-08-20T07:45:10Z</time></trkpt><trkpt lat="59.1047423612" lon="30.4684069566"><ele>49.65</ele><time>2026-08-20T07:45:39Z</time></trkpt><trkpt lat="59.1047682613" lon="30.4684421606"><ele>49.65</ele><time>2026-08-20T07:45:57Z</time></trkpt><trkpt lat="59.1048250906" lon="30.4685818031"><ele>49.65</ele><time>2026-08-20T07:46:10Z</time></trkpt><trkpt lat="59.1048781481" lon="30.4687319230"><ele>49.65</ele><time>2026-08-20T07:46:23Z</time></trkpt><trkpt lat="59.1049203090" lon="30.4688483477"><ele>49.65</ele><time>2026-08-20T07:46:33Z</time></trkpt><trkpt lat="59.1049871966" lon="30.4690589011"><ele>49.65</ele><time>2026-08-20T07:46:47Z</time></trkpt><trkpt lat="59.1050031222" lon="30.4692275450"><ele>49.65</ele><time>2026-08-20T07:47:00Z</time></trkpt><trkpt lat="59.1050331295" lon="30.4693819396"><ele>48.68</ele><time>2026-08-20T07:47:12Z</time></trkpt><trkpt lat="59.1050431877" lon="30.4695168883"><ele>48.68</ele><time>2026-08-20T07:47:26Z</time></trkpt><trkpt lat="59.1050299443" lon="30.4697359074"><ele>48.68</ele><time>2026-08-20T07:47:39Z</time></trkpt><trkpt lat="59.1050160304" lon="30.4698809143"><ele>48.68</ele><time>2026-08-20T07:47:50Z</time></trkpt><trkpt lat="59.1049410962" lon="30.4700441938"><ele>48.68</ele><time>2026-08-20T07:48:02Z</time></trkpt><trkpt lat="59.1049011145" lon="30.4702401627"><ele>48.20</ele><time>2026-08-20T07:48:13Z</time></trkpt><trkpt lat="59.1049044672" lon="30.4704202060"><ele>48.20</ele><time>2026-08-20T07:48:24Z</time></trkpt><trkpt lat="59.1049695946" lon="30.4706886783"><ele>48.20</ele><time>2026-08-20T07:48:37Z</time></trkpt><trkpt lat="59.1049857717" lon="30.4707776103"><ele>48.20</ele><time>2026-08-20T07:48:47Z</time></trkpt><trkpt lat="59.1049613804" lon="30.4710631818"><ele>47.72</ele><time>2026-08-20T07:49:01Z</time></trkpt><trkpt lat="59.1050217301" lon="30.4713140521"><ele>47.72</ele><time>2026-08-20T07:49:17Z</time></trkpt><trkpt lat="59.1050520726" lon="30.4714974482"><ele>47.72</ele><time>2026-08-20T07:49:30Z</time></trkpt><trkpt lat="59.1051239055" lon="30.4716649186"><ele>47.24</ele><time>2026-08-20T07:49:41Z</time></trkpt><trkpt lat="59.1051235702" lon="30.4717087559"><ele>48.68</ele><time>2026-08-20T07:49:58Z</time></trkpt><trkpt lat="59.1051218938" lon="30.4717193171"><ele>48.20</ele><time>2026-08-20T07:50:23Z</time></trkpt><trkpt lat="59.1051321197" lon="30.4717279505"><ele>48.20</ele><time>2026-08-20T07:50:46Z</time></trkpt><trkpt lat="59.1051497217" lon="30.4718210734"><ele>47.24</ele><time>2026-08-20T07:50:58Z</time></trkpt><trkpt lat="59.1051539965" lon="30.4718882963"><ele>47.24</ele><time>2026-08-20T07:51:03Z</time></trkpt><trkpt lat="59.1051473748" lon="30.4720063973"><ele>47.24</ele><time>2026-08-20T07:51:15Z</time></trkpt><trkpt lat="59.1051482968" lon="30.4720397573"><ele>47.24</ele><time>2026-08-20T07:51:19Z</time></trkpt><trkpt lat="59.1051572654" lon="30.4722350556"><ele>47.24</ele><time>2026-08-20T07:51:30Z</time></trkpt><trkpt lat="59.1051125899" lon="30.4724145122"><ele>46.76</ele><time>2026-08-20T07:51:44Z</time></trkpt><trkpt lat="59.1051570140" lon="30.4726129118"><ele>46.76</ele><time>2026-08-20T07:51:55Z</time></trkpt><trkpt lat="59.1051799804" lon="30.4727666359"><ele>46.76</ele><time>2026-08-20T07:52:08Z</time></trkpt><trkpt lat="59.1052103229" lon="30.4729026742"><ele>46.76</ele><time>2026-08-20T07:52:19Z</time></trkpt><trkpt lat="59.1052290145" lon="30.4730889201"><ele>46.76</ele><time>2026-08-20T07:52:31Z</time></trkpt><trkpt lat="59.1052216385" lon="30.4732500203"><ele>46.76</ele><time>2026-08-20T07:52:43Z</time></trkpt><trkpt lat="59.1052341275" lon="30.4734467436"><ele>46.76</ele><time>2026-08-20T07:52:54Z</time></trkpt><trkpt lat="59.1052077245" lon="30.4735830333"><ele>46.76</ele><time>2026-08-20T07:53:06Z</time></trkpt><trkpt lat="59.1052280925" lon="30.4737199936"><ele>46.76</ele><time>2026-08-20T07:53:17Z</time></trkpt><trkpt lat="59.1052290145" lon="30.4737411160"><ele>46.76</ele><time>2026-08-20T07:53:18Z</time></trkpt><trkpt lat="59.1052399948" lon="30.4739498254"><ele>46.76</ele><time>2026-08-20T07:53:30Z</time></trkpt><trkpt lat="59.1052352171" lon="30.4740271904"><ele>46.76</ele><time>2026-08-20T07:53:42Z</time></trkpt><trkpt lat="59.1052443534" lon="30.4741462134"><ele>46.28</ele><time>2026-08-20T07:53:54Z</time></trkpt><trkpt lat="59.1052763723" lon="30.4742656555"><ele>46.28</ele><time>2026-08-20T07:54:05Z</time></trkpt><trkpt lat="59.1053247359" lon="30.4744640552"><ele>46.28</ele><time>2026-08-20T07:54:18Z</time></trkpt><trkpt lat="59.1053723451" lon="30.4746633768"><ele>46.28</ele><time>2026-08-20T07:54:30Z</time></trkpt><trkpt lat="59.1053769551" lon="30.4747135006"><ele>46.28</ele><time>2026-08-20T07:54:45Z</time></trkpt><trkpt lat="59.1053805593" lon="30.4747309349"><ele>45.80</ele><time>2026-08-20T07:55:11Z</time></trkpt><trkpt lat="59.1053813975" lon="30.4747202899"><ele>45.80</ele><time>2026-08-20T07:55:45Z</time></trkpt><trkpt lat="59.1053881031" lon="30.4747640435"><ele>45.80</ele><time>2026-08-20T07:56:04Z</time></trkpt><trkpt lat="59.1053475346" lon="30.4748305120"><ele>45.80</ele><time>2026-08-20T07:56:14Z</time></trkpt><trkpt lat="59.1053148452" lon="30.4748402350"><ele>45.80</ele><time>2026-08-20T07:56:19Z</time></trkpt><trkpt lat="59.1052684933" lon="30.4748541489"><ele>45.80</ele><time>2026-08-20T07:56:24Z</time></trkpt><trkpt lat="59.1051026992" lon="30.4749298375"><ele>45.80</ele><time>2026-08-20T07:56:39Z</time></trkpt><trkpt lat="59.1050929762" lon="30.4749396443"><ele>45.80</ele><time>2026-08-20T07:56:40Z</time></trkpt><trkpt lat="59.1050165333" lon="30.4749667179"><ele>45.80</ele><time>2026-08-20T07:56:47Z</time></trkpt><trkpt lat="59.1049517412" lon="30.4749753512"><ele>45.80</ele><time>2026-08-20T07:56:54Z</time></trkpt><trkpt lat="59.1048981808" lon="30.4749559052"><ele>45.80</ele><time>2026-08-20T07:56:59Z</time></trkpt><trkpt lat="59.1047520004" lon="30.4749950487"><ele>45.80</ele><time>2026-08-20T07:57:13Z</time></trkpt><trkpt lat="59.1045971867" lon="30.4750552308"><ele>46.28</ele><time>2026-08-20T07:57:26Z</time></trkpt><trkpt lat="59.1045733821" lon="30.4750639480"><ele>46.28</ele><time>2026-08-20T07:57:39Z</time></trkpt><trkpt lat="59.1045771539" lon="30.4750595894"><ele>46.28</ele><time>2026-08-20T07:58:09Z</time></trkpt><trkpt lat="59.1045706160" lon="30.4750643671"><ele>46.28</ele><time>2026-08-20T07:58:27Z</time></trkpt><trkpt lat="59.1045691911" lon="30.4750501178"><ele>46.76</ele><time>2026-08-20T07:58:59Z</time></trkpt><trkpt lat="59.1045672633" lon="30.4750293307"><ele>46.76</ele><time>2026-08-20T07:59:15Z</time></trkpt><trkpt lat="59.1045707837" lon="30.4750263132"><ele>46.76</ele><time>2026-08-20T07:59:30Z</time></trkpt><trkpt lat="59.1045597196" lon="30.4749510437"><ele>46.76</ele><time>2026-08-20T07:59:44Z</time></trkpt><trkpt lat="59.1045504995" lon="30.4747978225"><ele>46.76</ele><time>2026-08-20T07:59:57Z</time></trkpt><trkpt lat="59.1045058239" lon="30.4747271631"><ele>46.76</ele><time>2026-08-20T08:00:08Z</time></trkpt><trkpt lat="59.1045141220" lon="30.4746391531"><ele>46.76</ele><time>2026-08-20T08:00:19Z</time></trkpt><trkpt lat="59.1044969391" lon="30.4745684098"><ele>46.76</ele><time>2026-08-20T08:00:33Z</time></trkpt><trkpt lat="59.1044231784" lon="30.4743269272"><ele>46.76</ele><time>2026-08-20T08:00:48Z</time></trkpt><trkpt lat="59.1044169758" lon="30.4741553497"><ele>46.76</ele><time>2026-08-20T08:01:02Z</time></trkpt><trkpt lat="59.1043995414" lon="30.4740326386"><ele>46.76</ele><time>2026-08-20T08:01:15Z</time></trkpt><trkpt lat="59.1044085938" lon="30.4739029706"><ele>47.24</ele><time>2026-08-20T08:01:32Z</time></trkpt><trkpt lat="59.1044272855" lon="30.4737128690"><ele>47.24</ele><time>2026-08-20T08:01:43Z</time></trkpt><trkpt lat="59.1044008825" lon="30.4735591449"><ele>47.24</ele><time>2026-08-20T08:01:54Z</time></trkpt><trkpt lat="59.1043712944" lon="30.4733863939"><ele>47.24</ele><time>2026-08-20T08:02:07Z</time></trkpt><trkpt lat="59.1043517645" lon="30.4731943645"><ele>47.24</ele><time>2026-08-20T08:02:19Z</time></trkpt><trkpt lat="59.1043350007" lon="30.4729797877"><ele>47.24</ele><time>2026-08-20T08:02:36Z</time></trkpt><trkpt lat="59.1043168120" lon="30.4728170950"><ele>47.24</ele><time>2026-08-20T08:02:48Z</time></trkpt><trkpt lat="59.1042930912" lon="30.4726033565"><ele>47.24</ele><time>2026-08-20T08:03:02Z</time></trkpt><trkpt lat="59.1043186560" lon="30.4723810684"><ele>47.24</ele><time>2026-08-20T08:03:13Z</time></trkpt><trkpt lat="59.1042255331" lon="30.4720737040"><ele>47.24</ele><time>2026-08-20T08:03:25Z</time></trkpt><trkpt lat="59.1041243635" lon="30.4717063252"><ele>47.24</ele><time>2026-08-20T08:03:38Z</time></trkpt><trkpt lat="59.1041085217" lon="30.4714747332"><ele>47.24</ele><time>2026-08-20T08:03:53Z</time></trkpt><trkpt lat="59.1040859744" lon="30.4712914210"><ele>47.24</ele><time>2026-08-20T08:04:05Z</time></trkpt><trkpt lat="59.1040853038" lon="30.4711559694"><ele>47.24</ele><time>2026-08-20T08:04:18Z</time></trkpt><trkpt lat="59.1040806100" lon="30.4710822925"><ele>47.72</ele><time>2026-08-20T08:04:31Z</time></trkpt><trkpt lat="59.1040891595" lon="30.4709994793"><ele>47.72</ele><time>2026-08-20T08:04:42Z</time></trkpt><trkpt lat="59.1041240282" lon="30.4707225412"><ele>47.72</ele><time>2026-08-20T08:04:55Z</time></trkpt><trkpt lat="59.1040392034" lon="30.4703980777"><ele>47.72</ele><time>2026-08-20T08:05:09Z</time></trkpt><trkpt lat="59.1040042508" lon="30.4702906217"><ele>47.72</ele><time>2026-08-20T08:05:20Z</time></trkpt><trkpt lat="59.1039698012" lon="30.4702035338"><ele>47.72</ele><time>2026-08-20T08:05:32Z</time></trkpt><trkpt lat="59.1039641853" lon="30.4700529948"><ele>47.72</ele><time>2026-08-20T08:05:45Z</time></trkpt><trkpt lat="59.1039593238" lon="30.4698849376"><ele>47.72</ele><time>2026-08-20T08:05:59Z</time></trkpt><trkpt lat="59.1039762553" lon="30.4697594605"><ele>47.72</ele><time>2026-08-20T08:06:11Z</time></trkpt><trkpt lat="59.1039746627" lon="30.4696494900"><ele>47.72</ele><time>2026-08-20T08:06:23Z</time></trkpt><trkpt lat="59.1039867327" lon="30.4695027228"><ele>47.72</ele><time>2026-08-20T08:06:37Z</time></trkpt><trkpt lat="59.1040106211" lon="30.4693877231"><ele>47.72</ele><time>2026-08-20T08:06:53Z</time></trkpt><trkpt lat="59.1040091962" lon="30.4692914151"><ele>47.72</ele><time>2026-08-20T08:07:07Z</time></trkpt><trkpt lat="59.1039118823" lon="30.4691490903"><ele>47.72</ele><time>2026-08-20T08:07:20Z</time></trkpt><trkpt lat="59.1039120499" lon="30.4691315722"><ele>47.72</ele><time>2026-08-20T08:07:26Z</time></trkpt><trkpt lat="59.1038421448" lon="30.4689485952"><ele>47.72</ele><time>2026-08-20T08:07:37Z</time></trkpt><trkpt lat="59.1037660372" lon="30.4688423127"><ele>47.72</ele><time>2026-08-20T08:07:50Z</time></trkpt><trkpt lat="59.1037633549" lon="30.4688172508"><ele>47.72</ele><time>2026-08-20T08:07:52Z</time></trkpt><trkpt lat="59.1037207749" lon="30.4686731659"><ele>47.72</ele><time>2026-08-20T08:08:04Z</time></trkpt><trkpt lat="59.1037065256" lon="30.4685880896"><ele>47.72</ele><time>2026-08-20T08:08:17Z</time></trkpt><trkpt lat="59.1036862414" lon="30.4684777837"><ele>47.72</ele><time>2026-08-20T08:08:33Z</time></trkpt><trkpt lat="59.1037009936" lon="30.4683183599"><ele>48.20</ele><time>2026-08-20T08:08:47Z</time></trkpt><trkpt lat="59.1037237924" lon="30.4681449383"><ele>47.72</ele><time>2026-08-20T08:08:59Z</time></trkpt><trkpt lat="59.1037265584" lon="30.4679784738"><ele>47.72</ele><time>2026-08-20T08:09:13Z</time></trkpt><trkpt lat="59.1037240438" lon="30.4678025376"><ele>47.72</ele><time>2026-08-20T08:09:26Z</time></trkpt><trkpt lat="59.1037180088" lon="30.4676671699"><ele>47.72</ele><time>2026-08-20T08:09:39Z</time></trkpt><trkpt lat="59.1037343536" lon="30.4674362484"><ele>47.72</ele><time>2026-08-20T08:09:53Z</time></trkpt><trkpt lat="59.1037161648" lon="30.4671465699"><ele>47.72</ele><time>2026-08-20T08:10:05Z</time></trkpt><trkpt lat="59.1036753450" lon="30.4669216834"><ele>47.72</ele><time>2026-08-20T08:10:16Z</time></trkpt><trkpt lat="59.1036336869" lon="30.4667629302"><ele>47.72</ele><time>2026-08-20T08:10:27Z</time></trkpt><trkpt lat="59.1036063619" lon="30.4666315019"><ele>47.72</ele><time>2026-08-20T08:10:41Z</time></trkpt><trkpt lat="59.1035682242" lon="30.4665005766"><ele>47.72</ele><time>2026-08-20T08:10:54Z</time></trkpt><trkpt lat="59.1035372950" lon="30.4664609302"><ele>47.72</ele><time>2026-08-20T08:10:57Z</time></trkpt><trkpt lat="59.1034212895" lon="30.4662830662"><ele>47.72</ele><time>2026-08-20T08:11:10Z</time></trkpt><trkpt lat="59.1033626162" lon="30.4661364667"><ele>47.72</ele><time>2026-08-20T08:11:21Z</time></trkpt><trkpt lat="59.1033672262" lon="30.4660686571"><ele>47.72</ele><time>2026-08-20T08:11:35Z</time></trkpt><trkpt lat="59.1033897735" lon="30.4660272505"><ele>47.72</ele><time>2026-08-20T08:11:50Z</time></trkpt><trkpt lat="59.1034268215" lon="30.4660015181"><ele>47.72</ele><time>2026-08-20T08:12:04Z</time></trkpt><trkpt lat="59.1034430824" lon="30.4659819044"><ele>48.20</ele><time>2026-08-20T08:12:22Z</time></trkpt><trkpt lat="59.1034922004" lon="30.4659280926"><ele>48.20</ele><time>2026-08-20T08:12:50Z</time></trkpt><trkpt lat="59.1035164241" lon="30.4658923857"><ele>48.20</ele><time>2026-08-20T08:13:14Z</time></trkpt><trkpt lat="59.1035445873" lon="30.4657989275"><ele>48.20</ele><time>2026-08-20T08:13:26Z</time></trkpt><trkpt lat="59.1035646200" lon="30.4657397512"><ele>48.68</ele><time>2026-08-20T08:13:51Z</time></trkpt><trkpt lat="59.1035657097" lon="30.4657359794"><ele>48.68</ele><time>2026-08-20T08:14:11Z</time></trkpt><trkpt lat="59.1035748459" lon="30.4657437745"><ele>48.68</ele><time>2026-08-20T08:14:26Z</time></trkpt><trkpt lat="59.1035682242" lon="30.4657477979"><ele>48.68</ele><time>2026-08-20T08:14:40Z</time></trkpt><trkpt lat="59.1035577469" lon="30.4657559283"><ele>48.68</ele><time>2026-08-20T08:14:52Z</time></trkpt><trkpt lat="59.1035286617" lon="30.4657576047"><ele>48.68</ele><time>2026-08-20T08:15:05Z</time></trkpt><trkpt lat="59.1034912784" lon="30.4657594487"><ele>48.68</ele><time>2026-08-20T08:15:17Z</time></trkpt><trkpt lat="59.1033521388" lon="30.4657680821"><ele>48.68</ele><time>2026-08-20T08:15:31Z</time></trkpt><trkpt lat="59.1031813156" lon="30.4657783918"><ele>48.68</ele><time>2026-08-20T08:15:44Z</time></trkpt><trkpt lat="59.1031026095" lon="30.4658086505"><ele>48.20</ele><time>2026-08-20T08:15:56Z</time></trkpt><trkpt lat="59.1030148510" lon="30.4658809863"><ele>48.20</ele><time>2026-08-20T08:16:07Z</time></trkpt><trkpt lat="59.1029819101" lon="30.4658816569"><ele>48.20</ele><time>2026-08-20T08:16:27Z</time></trkpt><trkpt lat="59.1029795632" lon="30.4658835009"><ele>48.20</ele><time>2026-08-20T08:16:48Z</time></trkpt><trkpt lat="59.1029802337" lon="30.4658949841"><ele>48.20</ele><time>2026-08-20T08:17:12Z</time></trkpt><trkpt lat="59.1029783059" lon="30.4658916313"><ele>48.20</ele><time>2026-08-20T08:17:23Z</time></trkpt><trkpt lat="59.1029662360" lon="30.4658848420"><ele>48.20</ele><time>2026-08-20T08:17:38Z</time></trkpt><trkpt lat="59.1029700078" lon="30.4658357240"><ele>48.20</ele><time>2026-08-20T08:17:49Z</time></trkpt><trkpt lat="59.1029572673" lon="30.4657954071"><ele>48.20</ele><time>2026-08-20T08:18:07Z</time></trkpt><trkpt lat="59.1029659845" lon="30.4657438584"><ele>48.20</ele><time>2026-08-20T08:18:43Z</time></trkpt><trkpt lat="59.1029718518" lon="30.4657861032"><ele>48.20</ele><time>2026-08-20T08:18:47Z</time></trkpt><trkpt lat="59.1029527411" lon="30.4658755381"><ele>48.20</ele><time>2026-08-20T08:19:00Z</time></trkpt><trkpt lat="59.1029270086" lon="30.4659374803"><ele>48.20</ele><time>2026-08-20T08:19:23Z</time></trkpt><trkpt lat="59.1029166989" lon="30.4659623746"><ele>49.16</ele><time>2026-08-20T08:19:44Z</time></trkpt><trkpt lat="59.1029089037" lon="30.4659988359"><ele>49.16</ele><time>2026-08-20T08:20:09Z</time></trkpt><trkpt lat="59.1028990131" lon="30.4660104029"><ele>49.16</ele><time>2026-08-20T08:20:35Z</time></trkpt><trkpt lat="59.1028915532" lon="30.4660256580"><ele>49.16</ele><time>2026-08-20T08:21:00Z</time></trkpt><trkpt lat="59.1028689221" lon="30.4660743568"><ele>49.65</ele><time>2026-08-20T08:21:33Z</time></trkpt><trkpt lat="59.1028652340" lon="30.4660887737"><ele>49.65</ele><time>2026-08-20T08:22:03Z</time></trkpt><trkpt lat="59.1028632224" lon="30.4660930485"><ele>49.65</ele><time>2026-08-20T08:22:36Z</time></trkpt><trkpt lat="59.1028705146" lon="30.4661301803"><ele>50.13</ele><time>2026-08-20T08:23:10Z</time></trkpt><trkpt lat="59.1028693411" lon="30.4661270790"><ele>50.13</ele><time>2026-08-20T08:23:39Z</time></trkpt><trkpt lat="59.1028717719" lon="30.4661215469"><ele>50.13</ele><time>2026-08-20T08:24:03Z</time></trkpt><trkpt lat="59.1028711013" lon="30.4661294259"><ele>50.61</ele><time>2026-08-20T08:24:27Z</time></trkpt><trkpt lat="59.1028782260" lon="30.4661314376"><ele>50.61</ele><time>2026-08-20T08:24:54Z</time></trkpt><trkpt lat="59.1028775554" lon="30.4661521409"><ele>51.09</ele><time>2026-08-20T08:25:17Z</time></trkpt><trkpt lat="59.1028742027" lon="30.4661569186"><ele>51.09</ele><time>2026-08-20T08:25:43Z</time></trkpt><trkpt lat="59.1028779745" lon="30.4661533982"><ele>51.09</ele><time>2026-08-20T08:26:09Z</time></trkpt><trkpt lat="59.1029105801" lon="30.4662129097"><ele>51.57</ele><time>2026-08-20T08:26:22Z</time></trkpt><trkpt lat="59.1029716842" lon="30.4662420787"><ele>51.57</ele><time>2026-08-20T08:26:35Z</time></trkpt><trkpt lat="59.1030490492" lon="30.4663232993"><ele>51.57</ele><time>2026-08-20T08:26:47Z</time></trkpt><trkpt lat="59.1030775476" lon="30.4664485250"><ele>51.57</ele><time>2026-08-20T08:26:57Z</time></trkpt><trkpt lat="59.1030834988" lon="30.4665238783"><ele>51.57</ele><time>2026-08-20T08:27:09Z</time></trkpt><trkpt lat="59.1030935571" lon="30.4666834697"><ele>51.57</ele><time>2026-08-20T08:27:22Z</time></trkpt><trkpt lat="59.1030782182" lon="30.4669234436"><ele>51.09</ele><time>2026-08-20T08:27:35Z</time></trkpt><trkpt lat="59.1030428465" lon="30.4670974519"><ele>51.09</ele><time>2026-08-20T08:27:47Z</time></trkpt><trkpt lat="59.1030745301" lon="30.4673442990"><ele>51.09</ele><time>2026-08-20T08:28:01Z</time></trkpt><trkpt lat="59.1031186190" lon="30.4675735440"><ele>51.09</ele><time>2026-08-20T08:28:13Z</time></trkpt><trkpt lat="59.1031472851" lon="30.4678422678"><ele>50.61</ele><time>2026-08-20T08:28:26Z</time></trkpt><trkpt lat="59.1031974927" lon="30.4680450261"><ele>50.61</ele><time>2026-08-20T08:28:37Z</time></trkpt><trkpt lat="59.1032112390" lon="30.4681154341"><ele>50.61</ele><time>2026-08-20T08:28:41Z</time></trkpt><trkpt lat="59.1032743547" lon="30.4682862572"><ele>50.13</ele><time>2026-08-20T08:28:56Z</time></trkpt><trkpt lat="59.1033205390" lon="30.4683816433"><ele>49.65</ele><time>2026-08-20T08:29:09Z</time></trkpt><trkpt lat="59.1033602692" lon="30.4685771093"><ele>49.65</ele><time>2026-08-20T08:29:21Z</time></trkpt><trkpt lat="59.1034264024" lon="30.4687574040"><ele>49.16</ele><time>2026-08-20T08:29:33Z</time></trkpt><trkpt lat="59.1034415737" lon="30.4688610043"><ele>48.68</ele><time>2026-08-20T08:29:45Z</time></trkpt><trkpt lat="59.1033527255" lon="30.4689617548"><ele>48.68</ele><time>2026-08-20T08:29:57Z</time></trkpt><trkpt lat="59.1032757796" lon="30.4691166524"><ele>48.20</ele><time>2026-08-20T08:30:10Z</time></trkpt><trkpt lat="59.1032811441" lon="30.4693043232"><ele>48.20</ele><time>2026-08-20T08:30:23Z</time></trkpt><trkpt lat="59.1033003386" lon="30.4694435466"><ele>47.72</ele><time>2026-08-20T08:30:34Z</time></trkpt><trkpt lat="59.1033854149" lon="30.4695913196"><ele>47.72</ele><time>2026-08-20T08:30:46Z</time></trkpt><trkpt lat="59.1034473572" lon="30.4697394278"><ele>47.24</ele><time>2026-08-20T08:31:00Z</time></trkpt><trkpt lat="59.1034646239" lon="30.4698020406"><ele>46.76</ele><time>2026-08-20T08:31:26Z</time></trkpt><trkpt lat="59.1034817230" lon="30.4698867816"><ele>46.76</ele><time>2026-08-20T08:31:53Z</time></trkpt><trkpt lat="59.1035234649" lon="30.4700547550"><ele>46.28</ele><time>2026-08-20T08:32:22Z</time></trkpt><trkpt lat="59.1035332717" lon="30.4702439345"><ele>46.28</ele><time>2026-08-20T08:32:34Z</time></trkpt><trkpt lat="59.1035158373" lon="30.4704065435"><ele>46.28</ele><time>2026-08-20T08:32:45Z</time></trkpt><trkpt lat="59.1034561582" lon="30.4705828987"><ele>46.28</ele><time>2026-08-20T08:32:57Z</time></trkpt><trkpt lat="59.1034867521" lon="30.4707013350"><ele>46.28</ele><time>2026-08-20T08:33:11Z</time></trkpt><trkpt lat="59.1034765262" lon="30.4708651174"><ele>46.28</ele><time>2026-08-20T08:33:24Z</time></trkpt><trkpt lat="59.1034821421" lon="30.4710126389"><ele>46.28</ele><time>2026-08-20T08:33:36Z</time></trkpt><trkpt lat="59.1035320982" lon="30.4711485095"><ele>46.28</ele><time>2026-08-20T08:33:50Z</time></trkpt><trkpt lat="59.1035472695" lon="30.4713757429"><ele>46.28</ele><time>2026-08-20T08:34:02Z</time></trkpt><trkpt lat="59.1035514604" lon="30.4716119450"><ele>46.28</ele><time>2026-08-20T08:34:15Z</time></trkpt><trkpt lat="59.1036089603" lon="30.4718472250"><ele>46.28</ele><time>2026-08-20T08:34:29Z</time></trkpt><trkpt lat="59.1036591679" lon="30.4719867837"><ele>46.28</ele><time>2026-08-20T08:34:42Z</time></trkpt><trkpt lat="59.1037187632" lon="30.4721777234"><ele>46.28</ele><time>2026-08-20T08:34:54Z</time></trkpt><trkpt lat="59.1037478484" lon="30.4723368958"><ele>46.28</ele><time>2026-08-20T08:35:07Z</time></trkpt><trkpt lat="59.1037936136" lon="30.4725681525"><ele>45.80</ele><time>2026-08-20T08:35:19Z</time></trkpt><trkpt lat="59.1038218606" lon="30.4727481119"><ele>45.80</ele><time>2026-08-20T08:35:33Z</time></trkpt><trkpt lat="59.1038171668" lon="30.4730414785"><ele>45.80</ele><time>2026-08-20T08:35:45Z</time></trkpt><trkpt lat="59.1038114671" lon="30.4732034169"><ele>45.80</ele><time>2026-08-20T08:36:00Z</time></trkpt><trkpt lat="59.1037935298" lon="30.4732548818"><ele>45.80</ele><time>2026-08-20T08:36:26Z</time></trkpt><trkpt lat="59.1037823819" lon="30.4732548818"><ele>45.80</ele><time>2026-08-20T08:36:55Z</time></trkpt><trkpt lat="59.1037838068" lon="30.4732977971"><ele>45.80</ele><time>2026-08-20T08:37:12Z</time></trkpt><trkpt lat="59.1037962958" lon="30.4733817838"><ele>45.80</ele><time>2026-08-20T08:37:27Z</time></trkpt><trkpt lat="59.1038232017" lon="30.4735297244"><ele>45.80</ele><time>2026-08-20T08:37:38Z</time></trkpt><trkpt lat="59.1038539633" lon="30.4737741407"><ele>45.80</ele><time>2026-08-20T08:37:51Z</time></trkpt><trkpt lat="59.1038747504" lon="30.4738999531"><ele>45.80</ele><time>2026-08-20T08:38:04Z</time></trkpt><trkpt lat="59.1038807854" lon="30.4740449600"><ele>45.80</ele><time>2026-08-20T08:38:14Z</time></trkpt><trkpt lat="59.1038730741" lon="30.4741110932"><ele>45.80</ele><time>2026-08-20T08:38:17Z</time></trkpt><trkpt lat="59.1038729902" lon="30.4742105864"><ele>45.80</ele><time>2026-08-20T08:38:21Z</time></trkpt><trkpt lat="59.1038680449" lon="30.4744050466"><ele>45.80</ele><time>2026-08-20T08:38:31Z</time></trkpt><trkpt lat="59.1038431507" lon="30.4746156000"><ele>45.80</ele><time>2026-08-20T08:38:43Z</time></trkpt><trkpt lat="59.1038608365" lon="30.4747701623"><ele>45.80</ele><time>2026-08-20T08:38:54Z</time></trkpt><trkpt lat="59.1038864013" lon="30.4748537298"><ele>45.80</ele><time>2026-08-20T08:39:06Z</time></trkpt><trkpt lat="59.1038977169" lon="30.4749020096"><ele>45.80</ele><time>2026-08-20T08:39:17Z</time></trkpt><trkpt lat="59.1039154865" lon="30.4749919474"><ele>45.80</ele><time>2026-08-20T08:39:28Z</time></trkpt><trkpt lat="59.1039060988" lon="30.4750568233"><ele>45.80</ele><time>2026-08-20T08:39:53Z</time></trkpt><trkpt lat="59.1038185917" lon="30.4750965536"><ele>45.80</ele><time>2026-08-20T08:40:10Z</time></trkpt><trkpt lat="59.1037435737" lon="30.4751258902"><ele>45.80</ele><time>2026-08-20T08:40:20Z</time></trkpt><trkpt lat="59.1036368720" lon="30.4751787800"><ele>45.80</ele><time>2026-08-20T08:40:32Z</time></trkpt><trkpt lat="59.1035957169" lon="30.4751924425"><ele>45.80</ele><time>2026-08-20T08:40:36Z</time></trkpt><trkpt lat="59.1034947149" lon="30.4752709810"><ele>45.80</ele><time>2026-08-20T08:40:48Z</time></trkpt><trkpt lat="59.1034042742" lon="30.4753619246"><ele>45.80</ele><time>2026-08-20T08:41:00Z</time></trkpt><trkpt lat="59.1033598501" lon="30.4753833823"><ele>45.80</ele><time>2026-08-20T08:41:10Z</time></trkpt><trkpt lat="59.1032730974" lon="30.4753827956"><ele>45.80</ele><time>2026-08-20T08:41:21Z</time></trkpt><trkpt lat="59.1032018512" lon="30.4754045047"><ele>46.28</ele><time>2026-08-20T08:41:35Z</time></trkpt><trkpt lat="59.1031492967" lon="30.4753719829"><ele>46.28</ele><time>2026-08-20T08:41:45Z</time></trkpt><trkpt lat="59.1031249892" lon="30.4753599968"><ele>46.28</ele><time>2026-08-20T08:41:59Z</time></trkpt><trkpt lat="59.1029854305" lon="30.4753977153"><ele>46.28</ele><time>2026-08-20T08:42:13Z</time></trkpt><trkpt lat="59.1028844286" lon="30.4753678758"><ele>46.28</ele><time>2026-08-20T08:42:28Z</time></trkpt><trkpt lat="59.1028616298" lon="30.4753634334"><ele>46.28</ele><time>2026-08-20T08:42:40Z</time></trkpt><trkpt lat="59.1028513201" lon="30.4753434844"><ele>46.28</ele><time>2026-08-20T08:42:53Z</time></trkpt><trkpt lat="59.1028452851" lon="30.4752904270"><ele>46.28</ele><time>2026-08-20T08:43:09Z</time></trkpt><trkpt lat="59.1028547566" lon="30.4752616771"><ele>46.28</ele><time>2026-08-20T08:43:24Z</time></trkpt><trkpt lat="59.1028701793" lon="30.4752620123"><ele>46.28</ele><time>2026-08-20T08:43:37Z</time></trkpt><trkpt lat="59.1028929781" lon="30.4752426501"><ele>46.28</ele><time>2026-08-20T08:43:54Z</time></trkpt><trkpt lat="59.1029052995" lon="30.4752049316"><ele>46.28</ele><time>2026-08-20T08:44:08Z</time></trkpt><trkpt lat="59.1029317025" lon="30.4751720745"><ele>46.28</ele><time>2026-08-20T08:44:19Z</time></trkpt><trkpt lat="59.1029489692" lon="30.4751619324"><ele>46.28</ele><time>2026-08-20T08:44:30Z</time></trkpt><trkpt lat="59.1029903758" lon="30.4751387984"><ele>46.28</ele><time>2026-08-20T08:44:46Z</time></trkpt><trkpt lat="59.1030204669" lon="30.4751010798"><ele>46.28</ele><time>2026-08-20T08:45:00Z</time></trkpt><trkpt lat="59.1030481271" lon="30.4750462621"><ele>46.28</ele><time>2026-08-20T08:45:19Z</time></trkpt><trkpt lat="59.1031112429" lon="30.4749811348"><ele>46.28</ele><time>2026-08-20T08:45:32Z</time></trkpt><trkpt lat="59.1031516436" lon="30.4748970643"><ele>46.28</ele><time>2026-08-20T08:45:47Z</time></trkpt><trkpt lat="59.1032124963" lon="30.4748593457"><ele>46.28</ele><time>2026-08-20T08:46:09Z</time></trkpt><trkpt lat="59.1032957286" lon="30.4747976549"><ele>46.28</ele><time>2026-08-20T08:46:31Z</time></trkpt><trkpt lat="59.1034394782" lon="30.4747122433"><ele>45.80</ele><time>2026-08-20T08:46:55Z</time></trkpt><trkpt lat="59.1034896858" lon="30.4746369738"><ele>45.80</ele><time>2026-08-20T08:47:12Z</time></trkpt><trkpt lat="59.1034999955" lon="30.4745943937"><ele>45.80</ele><time>2026-08-20T08:47:28Z</time></trkpt><trkpt lat="59.1035155859" lon="30.4745444376"><ele>45.80</ele><time>2026-08-20T08:47:43Z</time></trkpt><trkpt lat="59.1035234649" lon="30.4745171126"><ele>46.28</ele><time>2026-08-20T08:47:56Z</time></trkpt><trkpt lat="59.1035394743" lon="30.4744684976"><ele>46.28</ele><time>2026-08-20T08:48:08Z</time></trkpt><trkpt lat="59.1035451740" lon="30.4744461179"><ele>46.28</ele><time>2026-08-20T08:48:16Z</time></trkpt><trkpt lat="59.1035426594" lon="30.4743478820"><ele>46.28</ele><time>2026-08-20T08:48:29Z</time></trkpt><trkpt lat="59.1035431623" lon="30.4743449483"><ele>43.88</ele><time>2026-08-20T08:48:30Z</time></trkpt><trkpt lat="59.1035389714" lon="30.4743087385"><ele>46.28</ele><time>2026-08-20T08:48:39Z</time></trkpt><trkpt lat="59.1035245545" lon="30.4742284399"><ele>48.20</ele><time>2026-08-20T08:48:56Z</time></trkpt><trkpt lat="59.1034831479" lon="30.4741526674"><ele>46.76</ele><time>2026-08-20T08:49:20Z</time></trkpt><trkpt lat="59.1034595110" lon="30.4741221573"><ele>46.76</ele><time>2026-08-20T08:49:38Z</time></trkpt><trkpt lat="59.1034470219" lon="30.4740926530"><ele>46.28</ele><time>2026-08-20T08:49:54Z</time></trkpt><trkpt lat="59.1034031007" lon="30.4740369972"><ele>46.28</ele><time>2026-08-20T08:50:14Z</time></trkpt><trkpt lat="59.1033383086" lon="30.4740727879"><ele>46.28</ele><time>2026-08-20T08:50:24Z</time></trkpt><trkpt lat="59.1032979079" lon="30.4740958381"><ele>46.28</ele><time>2026-08-20T08:50:29Z</time></trkpt><trkpt lat="59.1032236442" lon="30.4740925692"><ele>46.28</ele><time>2026-08-20T08:50:41Z</time></trkpt><trkpt lat="59.1032047011" lon="30.4740728717"><ele>46.28</ele><time>2026-08-20T08:50:54Z</time></trkpt><trkpt lat="59.1031800583" lon="30.4740332253"><ele>46.28</ele><time>2026-08-20T08:51:10Z</time></trkpt><trkpt lat="59.1031626239" lon="30.4739082512"><ele>46.28</ele><time>2026-08-20T08:51:24Z</time></trkpt><trkpt lat="59.1031551640" lon="30.4738395195"><ele>46.28</ele><time>2026-08-20T08:51:38Z</time></trkpt><trkpt lat="59.1031532362" lon="30.4737138748"><ele>45.80</ele><time>2026-08-20T08:51:51Z</time></trkpt><trkpt lat="59.1031469498" lon="30.4735502601"><ele>45.80</ele><time>2026-08-20T08:52:07Z</time></trkpt><trkpt lat="59.1031663958" lon="30.4735108651"><ele>45.80</ele><time>2026-08-20T08:52:19Z</time></trkpt><trkpt lat="59.1031845845" lon="30.4734270461"><ele>45.80</ele><time>2026-08-20T08:52:34Z</time></trkpt><trkpt lat="59.1031943914" lon="30.4733537883"><ele>45.80</ele><time>2026-08-20T08:52:50Z</time></trkpt><trkpt lat="59.1031752806" lon="30.4732465837"><ele>45.80</ele><time>2026-08-20T08:53:06Z</time></trkpt><trkpt lat="59.1031295992" lon="30.4730506148"><ele>45.32</ele><time>2026-08-20T08:53:20Z</time></trkpt><trkpt lat="59.1031124163" lon="30.4729740880"><ele>45.32</ele><time>2026-08-20T08:53:32Z</time></trkpt><trkpt lat="59.1030518990" lon="30.4728567414"><ele>45.32</ele><time>2026-08-20T08:53:43Z</time></trkpt><trkpt lat="59.1030216403" lon="30.4727448430"><ele>45.32</ele><time>2026-08-20T08:53:53Z</time></trkpt><trkpt lat="59.1030181199" lon="30.4726003390"><ele>45.32</ele><time>2026-08-20T08:54:05Z</time></trkpt><trkpt lat="59.1030041222" lon="30.4724213853"><ele>45.32</ele><time>2026-08-20T08:54:21Z</time></trkpt><trkpt lat="59.1030086484" lon="30.4722529091"><ele>44.84</ele><time>2026-08-20T08:54:37Z</time></trkpt><trkpt lat="59.1030126717" lon="30.4721160326"><ele>44.84</ele><time>2026-08-20T08:54:52Z</time></trkpt><trkpt lat="59.1029958241" lon="30.4719353188"><ele>44.84</ele><time>2026-08-20T08:55:11Z</time></trkpt><trkpt lat="59.1029932257" lon="30.4718600493"><ele>44.84</ele><time>2026-08-20T08:55:25Z</time></trkpt><trkpt lat="59.1030039545" lon="30.4717598017"><ele>44.84</ele><time>2026-08-20T08:55:35Z</time></trkpt><trkpt lat="59.1029982548" lon="30.4715425428"><ele>44.84</ele><time>2026-08-20T08:55:49Z</time></trkpt><trkpt lat="59.1029757075" lon="30.4713769164"><ele>44.84</ele><time>2026-08-20T08:56:03Z</time></trkpt><trkpt lat="59.1029237397" lon="30.4712369386"><ele>44.84</ele><time>2026-08-20T08:56:14Z</time></trkpt><trkpt lat="59.1028698441" lon="30.4710441548"><ele>44.84</ele><time>2026-08-20T08:56:27Z</time></trkpt><trkpt lat="59.1028092429" lon="30.4708336852"><ele>44.36</ele><time>2026-08-20T08:56:40Z</time></trkpt><trkpt lat="59.1027576942" lon="30.4706839006"><ele>44.36</ele><time>2026-08-20T08:56:52Z</time></trkpt><trkpt lat="59.1027504019" lon="30.4704707488"><ele>44.36</ele><time>2026-08-20T08:57:03Z</time></trkpt><trkpt lat="59.1027280223" lon="30.4703265801"><ele>44.36</ele><time>2026-08-20T08:57:17Z</time></trkpt><trkpt lat="59.1026989371" lon="30.4701462854"><ele>44.36</ele><time>2026-08-20T08:57:33Z</time></trkpt><trkpt lat="59.1026628111" lon="30.4700125102"><ele>44.36</ele><time>2026-08-20T08:57:49Z</time></trkpt><trkpt lat="59.1026672535" lon="30.4699058086"><ele>44.36</ele><time>2026-08-20T08:58:03Z</time></trkpt><trkpt lat="59.1026546806" lon="30.4697972629"><ele>44.36</ele><time>2026-08-20T08:58:17Z</time></trkpt><trkpt lat="59.1026588716" lon="30.4696979374"><ele>44.36</ele><time>2026-08-20T08:58:29Z</time></trkpt><trkpt lat="59.1026484780" lon="30.4695604742"><ele>43.88</ele><time>2026-08-20T08:58:47Z</time></trkpt><trkpt lat="59.1026363242" lon="30.4694317281"><ele>43.88</ele><time>2026-08-20T08:59:02Z</time></trkpt><trkpt lat="59.1026372463" lon="30.4693179019"><ele>43.88</ele><time>2026-08-20T08:59:19Z</time></trkpt><trkpt lat="59.1026281100" lon="30.4692006391"><ele>43.88</ele><time>2026-08-20T08:59:33Z</time></trkpt><trkpt lat="59.1026223265" lon="30.4690530337"><ele>43.88</ele><time>2026-08-20T08:59:48Z</time></trkpt><trkpt lat="59.1026309598" lon="30.4688595794"><ele>43.88</ele><time>2026-08-20T09:00:00Z</time></trkpt><trkpt lat="59.1026137769" lon="30.4687282350"><ele>43.88</ele><time>2026-08-20T09:00:13Z</time></trkpt><trkpt lat="59.1026009526" lon="30.4685932025"><ele>43.40</ele><time>2026-08-20T09:00:30Z</time></trkpt><trkpt lat="59.1025996115" lon="30.4685680568"><ele>43.40</ele><time>2026-08-20T09:00:36Z</time></trkpt><trkpt lat="59.1025581211" lon="30.4684593435"><ele>43.40</ele><time>2026-08-20T09:00:49Z</time></trkpt><trkpt lat="59.1025139485" lon="30.4682899453"><ele>43.40</ele><time>2026-08-20T09:01:01Z</time></trkpt><trkpt lat="59.1024933290" lon="30.4681245703"><ele>43.40</ele><time>2026-08-20T09:01:15Z</time></trkpt><trkpt lat="59.1024229210" lon="30.4679921363"><ele>43.40</ele><time>2026-08-20T09:01:28Z</time></trkpt><trkpt lat="59.1023863759" lon="30.4678721912"><ele>43.40</ele><time>2026-08-20T09:01:40Z</time></trkpt><trkpt lat="59.1023496632" lon="30.4677881207"><ele>43.40</ele><time>2026-08-20T09:01:52Z</time></trkpt><trkpt lat="59.1023213323" lon="30.4676913098"><ele>43.40</ele><time>2026-08-20T09:02:06Z</time></trkpt><trkpt lat="59.1023131181" lon="30.4676234163"><ele>43.40</ele><time>2026-08-20T09:02:17Z</time></trkpt><trkpt lat="59.1023038141" lon="30.4675308801"><ele>42.92</ele><time>2026-08-20T09:02:31Z</time></trkpt><trkpt lat="59.1022811830" lon="30.4673922434"><ele>42.92</ele><time>2026-08-20T09:02:43Z</time></trkpt><trkpt lat="59.1022644192" lon="30.4673346598"><ele>42.92</ele><time>2026-08-20T09:02:48Z</time></trkpt><trkpt lat="59.1022018064" lon="30.4672158044"><ele>42.92</ele><time>2026-08-20T09:03:01Z</time></trkpt><trkpt lat="59.1021987889" lon="30.4670921713"><ele>42.92</ele><time>2026-08-20T09:03:17Z</time></trkpt><trkpt lat="59.1021982022" lon="30.4670047481"><ele>42.92</ele><time>2026-08-20T09:03:34Z</time></trkpt><trkpt lat="59.1021621600" lon="30.4668977112"><ele>42.92</ele><time>2026-08-20T09:03:53Z</time></trkpt><trkpt lat="59.1021614056" lon="30.4668213520"><ele>42.92</ele><time>2026-08-20T09:04:10Z</time></trkpt><trkpt lat="59.1021846235" lon="30.4667874053"><ele>42.92</ele><time>2026-08-20T09:04:22Z</time></trkpt><trkpt lat="59.1022249404" lon="30.4667515308"><ele>42.92</ele><time>2026-08-20T09:04:27Z</time></trkpt><trkpt lat="59.1022766568" lon="30.4666648619"><ele>42.92</ele><time>2026-08-20T09:04:39Z</time></trkpt><trkpt lat="59.1022857092" lon="30.4665211961"><ele>42.92</ele><time>2026-08-20T09:04:52Z</time></trkpt><trkpt lat="59.1023012996" lon="30.4664522130"><ele>42.92</ele><time>2026-08-20T09:05:09Z</time></trkpt><trkpt lat="59.1022841167" lon="30.4663621075"><ele>46.28</ele><time>2026-08-20T09:05:24Z</time></trkpt><trkpt lat="59.1022835299" lon="30.4663491994"><ele>48.20</ele><time>2026-08-20T09:05:27Z</time></trkpt><trkpt lat="59.1022843681" lon="30.4662977345"><ele>47.24</ele><time>2026-08-20T09:05:53Z</time></trkpt><trkpt lat="59.1022915766" lon="30.4662754387"><ele>44.36</ele><time>2026-08-20T09:06:02Z</time></trkpt><trkpt lat="59.1022945940" lon="30.4662701581"><ele>40.99</ele><time>2026-08-20T09:06:08Z</time></trkpt><trkpt lat="59.1023087595" lon="30.4662505444"><ele>42.44</ele><time>2026-08-20T09:06:26Z</time></trkpt><trkpt lat="59.1023266129" lon="30.4662326071"><ele>43.40</ele><time>2026-08-20T09:06:50Z</time></trkpt><trkpt lat="59.1023789160" lon="30.4661910329"><ele>43.88</ele><time>2026-08-20T09:07:07Z</time></trkpt><trkpt lat="59.1024320573" lon="30.4661769513"><ele>43.88</ele><time>2026-08-20T09:07:21Z</time></trkpt><trkpt lat="59.1024638247" lon="30.4661628697"><ele>43.88</ele><time>2026-08-20T09:07:46Z</time></trkpt><trkpt lat="59.1024912335" lon="30.4661551584"><ele>43.88</ele><time>2026-08-20T09:08:10Z</time></trkpt><trkpt lat="59.1024981067" lon="30.4661375564"><ele>43.88</ele><time>2026-08-20T09:08:36Z</time></trkpt><trkpt lat="59.1025095899" lon="30.4661326949"><ele>43.88</ele><time>2026-08-20T09:09:04Z</time></trkpt><trkpt lat="59.1025175527" lon="30.4661380593"><ele>43.88</ele><time>2026-08-20T09:09:33Z</time></trkpt><trkpt lat="59.1025216598" lon="30.4661464412"><ele>43.88</ele><time>2026-08-20T09:09:55Z</time></trkpt><trkpt lat="59.1025259346" lon="30.4661405738"><ele>43.88</ele><time>2026-08-20T09:10:23Z</time></trkpt><trkpt lat="59.1025280301" lon="30.4661248997"><ele>44.84</ele><time>2026-08-20T09:10:46Z</time></trkpt><trkpt lat="59.1025452968" lon="30.4660703335"><ele>44.84</ele><time>2026-08-20T09:11:11Z</time></trkpt><trkpt lat="59.1025631502" lon="30.4660446011"><ele>44.84</ele><time>2026-08-20T09:11:26Z</time></trkpt><trkpt lat="59.1025749687" lon="30.4660016857"><ele>44.84</ele><time>2026-08-20T09:11:57Z</time></trkpt><trkpt lat="59.1025811713" lon="30.4659500532"><ele>44.84</ele><time>2026-08-20T09:12:29Z</time></trkpt><trkpt lat="59.1025826801" lon="30.4659417551"><ele>45.32</ele><time>2026-08-20T09:13:00Z</time></trkpt><trkpt lat="59.1025903914" lon="30.4659420904"><ele>45.32</ele><time>2026-08-20T09:13:31Z</time></trkpt><trkpt lat="59.1026043054" lon="30.4659468681"><ele>45.32</ele><time>2026-08-20T09:13:47Z</time></trkpt><trkpt lat="59.1026944946" lon="30.4659845866"><ele>45.32</ele><time>2026-08-20T09:13:59Z</time></trkpt><trkpt lat="59.1027485579" lon="30.4660321958"><ele>45.32</ele><time>2026-08-20T09:14:10Z</time></trkpt><trkpt lat="59.1028060578" lon="30.4660316091"><ele>45.80</ele><time>2026-08-20T09:14:22Z</time></trkpt><trkpt lat="59.1028099135" lon="30.4660326149"><ele>45.80</ele><time>2026-08-20T09:14:24Z</time></trkpt><trkpt lat="59.1028968338" lon="30.4660508875"><ele>45.80</ele><time>2026-08-20T09:14:38Z</time></trkpt><trkpt lat="59.1029634699" lon="30.4660299327"><ele>45.80</ele><time>2026-08-20T09:14:52Z</time></trkpt><trkpt lat="59.1030280944" lon="30.4660111573"><ele>45.80</ele><time>2026-08-20T09:15:05Z</time></trkpt><trkpt lat="59.1030934732" lon="30.4659850057"><ele>45.80</ele><time>2026-08-20T09:15:19Z</time></trkpt><trkpt lat="59.1031927150" lon="30.4659782164"><ele>45.80</ele><time>2026-08-20T09:15:31Z</time></trkpt><trkpt lat="59.1032638773" lon="30.4659492988"><ele>45.80</ele><time>2026-08-20T09:15:45Z</time></trkpt><trkpt lat="59.1033472773" lon="30.4659322836"><ele>45.80</ele><time>2026-08-20T09:15:58Z</time></trkpt><trkpt lat="59.1034987383" lon="30.4659121670"><ele>45.80</ele><time>2026-08-20T09:16:09Z</time></trkpt><trkpt lat="59.1036252212" lon="30.4659099877"><ele>45.80</ele><time>2026-08-20T09:16:23Z</time></trkpt><trkpt lat="59.1036999039" lon="30.4658837523"><ele>45.80</ele><time>2026-08-20T09:16:36Z</time></trkpt><trkpt lat="59.1037777718" lon="30.4658685811"><ele>45.80</ele><time>2026-08-20T09:16:48Z</time></trkpt><trkpt lat="59.1038420610" lon="30.4658475425"><ele>45.80</ele><time>2026-08-20T09:17:02Z</time></trkpt><trkpt lat="59.1039743274" lon="30.4658508115"><ele>45.80</ele><time>2026-08-20T09:17:14Z</time></trkpt><trkpt lat="59.1041709669" lon="30.4658095725"><ele>45.32</ele><time>2026-08-20T09:17:27Z</time></trkpt><trkpt lat="59.1042343341" lon="30.4658078123"><ele>45.32</ele><time>2026-08-20T09:17:33Z</time></trkpt><trkpt lat="59.1044078395" lon="30.4658108298"><ele>45.32</ele><time>2026-08-20T09:17:47Z</time></trkpt><trkpt lat="59.1044360865" lon="30.4658009391"><ele>45.80</ele><time>2026-08-20T09:17:53Z</time></trkpt><trkpt lat="59.1045600548" lon="30.4657563474"><ele>45.80</ele><time>2026-08-20T09:18:05Z</time></trkpt><trkpt lat="59.1046862863" lon="30.4657985084"><ele>45.80</ele><time>2026-08-20T09:18:20Z</time></trkpt><trkpt lat="59.1048023757" lon="30.4657863546"><ele>45.80</ele><time>2026-08-20T09:18:31Z</time></trkpt><trkpt lat="59.1048816685" lon="30.4657440260"><ele>45.80</ele><time>2026-08-20T09:18:42Z</time></trkpt><trkpt lat="59.1049479693" lon="30.4657179583"><ele>45.32</ele><time>2026-08-20T09:18:56Z</time></trkpt><trkpt lat="59.1050108336" lon="30.4656944890"><ele>45.32</ele><time>2026-08-20T09:19:04Z</time></trkpt><trkpt lat="59.1051382385" lon="30.4656616319"><ele>45.32</ele><time>2026-08-20T09:19:16Z</time></trkpt><trkpt lat="59.1052184533" lon="30.4656589497"><ele>45.32</ele><time>2026-08-20T09:19:28Z</time></trkpt><trkpt lat="59.1052879393" lon="30.4655897990"><ele>45.32</ele><time>2026-08-20T09:19:43Z</time></trkpt><trkpt lat="59.1053259932" lon="30.4655667488"><ele>45.80</ele><time>2026-08-20T09:19:58Z</time></trkpt><trkpt lat="59.1053710040" lon="30.4655542597"><ele>45.80</ele><time>2026-08-20T09:20:10Z</time></trkpt><trkpt lat="59.1054306831" lon="30.4655322991"><ele>45.80</ele><time>2026-08-20T09:20:23Z</time></trkpt><trkpt lat="59.1054810584" lon="30.4654955864"><ele>45.80</ele><time>2026-08-20T09:20:36Z</time></trkpt><trkpt lat="59.1055253986" lon="30.4654696025"><ele>45.32</ele><time>2026-08-20T09:20:51Z</time></trkpt><trkpt lat="59.1055640392" lon="30.4654722847"><ele>45.32</ele><time>2026-08-20T09:21:04Z</time></trkpt><trkpt lat="59.1056162585" lon="30.4654815886"><ele>45.32</ele><time>2026-08-20T09:21:19Z</time></trkpt><trkpt lat="59.1056873370" lon="30.4654867016"><ele>45.32</ele><time>2026-08-20T09:21:34Z</time></trkpt><trkpt lat="59.1057626065" lon="30.4654652439"><ele>45.80</ele><time>2026-08-20T09:21:52Z</time></trkpt><trkpt lat="59.1058396362" lon="30.4654700216"><ele>45.80</ele><time>2026-08-20T09:22:16Z</time></trkpt><trkpt lat="59.1058934480" lon="30.4655052256"><ele>45.32</ele><time>2026-08-20T09:22:31Z</time></trkpt><trkpt lat="59.1059657838" lon="30.4655535053"><ele>45.32</ele><time>2026-08-20T09:22:44Z</time></trkpt><trkpt lat="59.1060219426" lon="30.4656671640"><ele>45.32</ele><time>2026-08-20T09:22:59Z</time></trkpt><trkpt lat="59.1060770955" lon="30.4657930601"><ele>45.32</ele><time>2026-08-20T09:23:13Z</time></trkpt><trkpt lat="59.1061278060" lon="30.4658907931"><ele>45.32</ele><time>2026-08-20T09:23:26Z</time></trkpt><trkpt lat="59.1061876528" lon="30.4660838284"><ele>45.32</ele><time>2026-08-20T09:23:38Z</time></trkpt><trkpt lat="59.1062289756" lon="30.4662171844"><ele>45.32</ele><time>2026-08-20T09:23:52Z</time></trkpt><trkpt lat="59.1062223539" lon="30.4663131572"><ele>45.32</ele><time>2026-08-20T09:24:04Z</time></trkpt><trkpt lat="59.1062210128" lon="30.4663578328"><ele>45.32</ele><time>2026-08-20T09:24:08Z</time></trkpt><trkpt lat="59.1060981341" lon="30.4665154964"><ele>44.84</ele><time>2026-08-20T09:24:23Z</time></trkpt><trkpt lat="59.1060377844" lon="30.4665735830"><ele>44.84</ele><time>2026-08-20T09:24:36Z</time></trkpt><trkpt lat="59.1059754230" lon="30.4666342679"><ele>44.84</ele><time>2026-08-20T09:24:49Z</time></trkpt><trkpt lat="59.1059363633" lon="30.4666873254"><ele>44.84</ele><time>2026-08-20T09:24:59Z</time></trkpt><trkpt lat="59.1058821324" lon="30.4668951128"><ele>44.84</ele><time>2026-08-20T09:25:12Z</time></trkpt><trkpt lat="59.1058391333" lon="30.4670203384"><ele>44.84</ele><time>2026-08-20T09:25:26Z</time></trkpt><trkpt lat="59.1058167536" lon="30.4671347514"><ele>44.84</ele><time>2026-08-20T09:25:40Z</time></trkpt><trkpt lat="59.1058215313" lon="30.4673288763"><ele>44.84</ele><time>2026-08-20T09:25:53Z</time></trkpt><trkpt lat="59.1058268119" lon="30.4674893059"><ele>44.84</ele><time>2026-08-20T09:26:07Z</time></trkpt><trkpt lat="59.1058418155" lon="30.4676115140"><ele>45.32</ele><time>2026-08-20T09:26:21Z</time></trkpt><trkpt lat="59.1058723256" lon="30.4676851071"><ele>45.32</ele><time>2026-08-20T09:26:34Z</time></trkpt><trkpt lat="59.1059055179" lon="30.4677681718"><ele>45.32</ele><time>2026-08-20T09:26:49Z</time></trkpt><trkpt lat="59.1059387103" lon="30.4678208940"><ele>45.80</ele><time>2026-08-20T09:27:02Z</time></trkpt><trkpt lat="59.1059712321" lon="30.4678654019"><ele>45.80</ele><time>2026-08-20T09:27:14Z</time></trkpt><trkpt lat="59.1060095374" lon="30.4679203033"><ele>45.80</ele><time>2026-08-20T09:27:25Z</time></trkpt><trkpt lat="59.1060494352" lon="30.4679612909"><ele>45.80</ele><time>2026-08-20T09:27:39Z</time></trkpt><trkpt lat="59.1061072703" lon="30.4680480435"><ele>45.80</ele><time>2026-08-20T09:27:52Z</time></trkpt><trkpt lat="59.1062345915" lon="30.4682793841"><ele>45.80</ele><time>2026-08-20T09:28:05Z</time></trkpt><trkpt lat="59.1062775068" lon="30.4683109000"><ele>45.80</ele><time>2026-08-20T09:28:09Z</time></trkpt><trkpt lat="59.1063773353" lon="30.4684996605"><ele>45.32</ele><time>2026-08-20T09:28:23Z</time></trkpt><trkpt lat="59.1064248607" lon="30.4686263949"><ele>45.32</ele><time>2026-08-20T09:28:34Z</time></trkpt><trkpt lat="59.1064692009" lon="30.4687877465"><ele>45.32</ele><time>2026-08-20T09:28:47Z</time></trkpt><trkpt lat="59.1064414568" lon="30.4688565619"><ele>45.32</ele><time>2026-08-20T09:29:01Z</time></trkpt><trkpt lat="59.1064419597" lon="30.4689079430"><ele>45.32</ele><time>2026-08-20T09:29:21Z</time></trkpt><trkpt lat="59.1064574663" lon="30.4689199291"><ele>45.32</ele><time>2026-08-20T09:29:40Z</time></trkpt><trkpt lat="59.1064477433" lon="30.4689115472"><ele>45.32</ele><time>2026-08-20T09:30:00Z</time></trkpt><trkpt lat="59.1064262856" lon="30.4689182527"><ele>45.80</ele><time>2026-08-20T09:30:22Z</time></trkpt><trkpt lat="59.1064218432" lon="30.4688973818"><ele>45.80</ele><time>2026-08-20T09:30:36Z</time></trkpt><trkpt lat="59.1064298898" lon="30.4688653629"><ele>45.80</ele><time>2026-08-20T09:30:50Z</time></trkpt><trkpt lat="59.1064375173" lon="30.4689128883"><ele>45.80</ele><time>2026-08-20T09:31:02Z</time></trkpt><trkpt lat="59.1064619087" lon="30.4690744914"><ele>45.80</ele><time>2026-08-20T09:31:14Z</time></trkpt><trkpt lat="59.1064612381" lon="30.4691898264"><ele>45.80</ele><time>2026-08-20T09:31:27Z</time></trkpt><trkpt lat="59.1064288840" lon="30.4692866374"><ele>45.80</ele><time>2026-08-20T09:31:43Z</time></trkpt><trkpt lat="59.1063791793" lon="30.4693238530"><ele>45.80</ele><time>2026-08-20T09:31:57Z</time></trkpt><trkpt lat="59.1061897483" lon="30.4694321472"><ele>44.84</ele><time>2026-08-20T09:32:09Z</time></trkpt><trkpt lat="59.1061014868" lon="30.4695919901"><ele>45.32</ele><time>2026-08-20T09:32:22Z</time></trkpt><trkpt lat="59.1060733236" lon="30.4697446246"><ele>45.32</ele><time>2026-08-20T09:32:35Z</time></trkpt><trkpt lat="59.1060363594" lon="30.4700098280"><ele>45.32</ele><time>2026-08-20T09:32:49Z</time></trkpt><trkpt lat="59.1060753353" lon="30.4700509831"><ele>45.32</ele><time>2026-08-20T09:33:12Z</time></trkpt><trkpt lat="59.1061767563" lon="30.4702430964"><ele>45.32</ele><time>2026-08-20T09:33:28Z</time></trkpt><trkpt lat="59.1062378604" lon="30.4704977386"><ele>45.80</ele><time>2026-08-20T09:33:40Z</time></trkpt><trkpt lat="59.1063137166" lon="30.4706607666"><ele>45.80</ele><time>2026-08-20T09:33:53Z</time></trkpt><trkpt lat="59.1063221823" lon="30.4706797935"><ele>45.80</ele><time>2026-08-20T09:34:05Z</time></trkpt><trkpt lat="59.1063435562" lon="30.4707282409"><ele>45.80</ele><time>2026-08-20T09:34:18Z</time></trkpt><trkpt lat="59.1064198315" lon="30.4709495232"><ele>45.80</ele><time>2026-08-20T09:34:32Z</time></trkpt><trkpt lat="59.1064185742" lon="30.4711371940"><ele>45.80</ele><time>2026-08-20T09:34:44Z</time></trkpt><trkpt lat="59.1063795146" lon="30.4713549558"><ele>45.80</ele><time>2026-08-20T09:34:56Z</time></trkpt><trkpt lat="59.1063619964" lon="30.4714825284"><ele>45.80</ele><time>2026-08-20T09:35:01Z</time></trkpt><trkpt lat="59.1063719708" lon="30.4716877174"><ele>45.80</ele><time>2026-08-20T09:35:14Z</time></trkpt><trkpt lat="59.1064059176" lon="30.4718737118"><ele>45.80</ele><time>2026-08-20T09:35:25Z</time></trkpt><trkpt lat="59.1064298060" lon="30.4720397573"><ele>45.80</ele><time>2026-08-20T09:35:37Z</time></trkpt><trkpt lat="59.1064104438" lon="30.4721320421"><ele>45.80</ele><time>2026-08-20T09:35:51Z</time></trkpt><trkpt lat="59.1063988768" lon="30.4721620493"><ele>45.80</ele><time>2026-08-20T09:36:13Z</time></trkpt><trkpt lat="59.1064396128" lon="30.4721133504"><ele>46.28</ele><time>2026-08-20T09:36:34Z</time></trkpt><trkpt lat="59.1064375173" lon="30.4721084051"><ele>46.28</ele><time>2026-08-20T09:36:58Z</time></trkpt><trkpt lat="59.1064377688" lon="30.4721241631"><ele>46.28</ele><time>2026-08-20T09:37:20Z</time></trkpt><trkpt lat="59.1064434685" lon="30.4721481353"><ele>46.28</ele><time>2026-08-20T09:37:35Z</time></trkpt><trkpt lat="59.1064493358" lon="30.4721566010"><ele>46.28</ele><time>2026-08-20T09:37:51Z</time></trkpt><trkpt lat="59.1065061651" lon="30.4722105805"><ele>46.28</ele><time>2026-08-20T09:38:08Z</time></trkpt><trkpt lat="59.1065096017" lon="30.4723519832"><ele>46.28</ele><time>2026-08-20T09:38:19Z</time></trkpt><trkpt lat="59.1065204982" lon="30.4724053759"><ele>46.28</ele><time>2026-08-20T09:38:24Z</time></trkpt><trkpt lat="59.1064919997" lon="30.4725821503"><ele>46.28</ele><time>2026-08-20T09:38:36Z</time></trkpt><trkpt lat="59.1064928379" lon="30.4727663845"><ele>46.28</ele><time>2026-08-20T09:38:49Z</time></trkpt><trkpt lat="59.1065101884" lon="30.4728708230"><ele>46.28</ele><time>2026-08-20T09:38:56Z</time></trkpt><trkpt lat="59.1065375134" lon="30.4729640298"><ele>46.28</ele><time>2026-08-20T09:39:02Z</time></trkpt><trkpt lat="59.1065567918" lon="30.4731418937"><ele>46.28</ele><time>2026-08-20T09:39:15Z</time></trkpt><trkpt lat="59.1065665986" lon="30.4732124694"><ele>46.76</ele><time>2026-08-20T09:39:24Z</time></trkpt><trkpt lat="59.1065784171" lon="30.4733704682"><ele>46.76</ele><time>2026-08-20T09:39:36Z</time></trkpt><trkpt lat="59.1065691970" lon="30.4735507630"><ele>46.76</ele><time>2026-08-20T09:39:45Z</time></trkpt><trkpt lat="59.1065707058" lon="30.4737220053"><ele>46.76</ele><time>2026-08-20T09:39:53Z</time></trkpt><trkpt lat="59.1065708734" lon="30.4739212431"><ele>46.76</ele><time>2026-08-20T09:40:05Z</time></trkpt><trkpt lat="59.1065829434" lon="30.4740924016"><ele>46.76</ele><time>2026-08-20T09:40:16Z</time></trkpt><trkpt lat="59.1066101007" lon="30.4742485564"><ele>46.76</ele><time>2026-08-20T09:40:26Z</time></trkpt><trkpt lat="59.1066073347" lon="30.4742819164"><ele>46.76</ele><time>2026-08-20T09:40:28Z</time></trkpt><trkpt lat="59.1066376772" lon="30.4744595289"><ele>46.28</ele><time>2026-08-20T09:40:40Z</time></trkpt><trkpt lat="59.1066430416" lon="30.4744949006"><ele>46.28</ele><time>2026-08-20T09:40:50Z</time></trkpt><trkpt lat="59.1065810993" lon="30.4745549988"><ele>46.28</ele><time>2026-08-20T09:41:03Z</time></trkpt><trkpt lat="59.1065620724" lon="30.4745487124"><ele>46.28</ele><time>2026-08-20T09:41:14Z</time></trkpt><trkpt lat="59.1065594740" lon="30.4745428450"><ele>47.72</ele><time>2026-08-20T09:41:17Z</time></trkpt><trkpt lat="59.1065372620" lon="30.4745574296"><ele>47.72</ele><time>2026-08-20T09:41:32Z</time></trkpt><trkpt lat="59.1065321490" lon="30.4745799769"><ele>47.72</ele><time>2026-08-20T09:41:42Z</time></trkpt><trkpt lat="59.1065421235" lon="30.4745964054"><ele>47.72</ele><time>2026-08-20T09:42:00Z</time></trkpt><trkpt lat="59.1066041496" lon="30.4746254068"><ele>47.72</ele><time>2026-08-20T09:42:14Z</time></trkpt><trkpt lat="59.1066295467" lon="30.4746330343"><ele>47.72</ele><time>2026-08-20T09:42:30Z</time></trkpt><trkpt lat="59.1066349111" lon="30.4746412486"><ele>48.20</ele><time>2026-08-20T09:42:49Z</time></trkpt><trkpt lat="59.1066364199" lon="30.4746621195"><ele>48.20</ele><time>2026-08-20T09:43:13Z</time></trkpt><trkpt lat="59.1066444665" lon="30.4746716749"><ele>48.20</ele><time>2026-08-20T09:43:38Z</time></trkpt><trkpt lat="59.1066428740" lon="30.4746812303"><ele>48.20</ele><time>2026-08-20T09:44:02Z</time></trkpt><trkpt lat="59.1066447180" lon="30.4746778775"><ele>48.68</ele><time>2026-08-20T09:44:32Z</time></trkpt><trkpt lat="59.1066477355" lon="30.4746952280"><ele>48.68</ele><time>2026-08-20T09:45:00Z</time></trkpt><trkpt lat="59.1066504177" lon="30.4747056216"><ele>48.68</ele><time>2026-08-20T09:45:26Z</time></trkpt><trkpt lat="59.1066595539" lon="30.4747267440"><ele>48.68</ele><time>2026-08-20T09:46:00Z</time></trkpt><trkpt lat="59.1066572908" lon="30.4747427534"><ele>49.16</ele><time>2026-08-20T09:46:26Z</time></trkpt><trkpt lat="59.1066541895" lon="30.4747439269"><ele>49.16</ele><time>2026-08-20T09:46:47Z</time></trkpt><trkpt lat="59.1066591348" lon="30.4747627024"><ele>49.16</ele><time>2026-08-20T09:47:11Z</time></trkpt><trkpt lat="59.1066392697" lon="30.4747363832"><ele>49.16</ele><time>2026-08-20T09:47:34Z</time></trkpt><trkpt lat="59.1066248529" lon="30.4747394845"><ele>49.65</ele><time>2026-08-20T09:47:51Z</time></trkpt><trkpt lat="59.1066204105" lon="30.4747359641"><ele>49.65</ele><time>2026-08-20T09:48:11Z</time></trkpt><trkpt lat="59.1066184826" lon="30.4747608583"><ele>50.61</ele><time>2026-08-20T09:48:40Z</time></trkpt><trkpt lat="59.1066210810" lon="30.4747617804"><ele>50.61</ele><time>2026-08-20T09:49:01Z</time></trkpt><trkpt lat="59.1066303849" lon="30.4747647978"><ele>50.61</ele><time>2026-08-20T09:49:25Z</time></trkpt><trkpt lat="59.1066372581" lon="30.4747584276"><ele>50.61</ele><time>2026-08-20T09:49:46Z</time></trkpt><trkpt lat="59.1066279542" lon="30.4747567512"><ele>51.09</ele><time>2026-08-20T09:50:15Z</time></trkpt><trkpt lat="59.1066330671" lon="30.4747482017"><ele>51.09</ele><time>2026-08-20T09:50:29Z</time></trkpt><trkpt lat="59.1067594662" lon="30.4746938031"><ele>51.09</ele><time>2026-08-20T09:50:42Z</time></trkpt><trkpt lat="59.1068181396" lon="30.4746627901"><ele>51.09</ele><time>2026-08-20T09:50:48Z</time></trkpt><trkpt lat="59.1068831831" lon="30.4746580124"><ele>51.09</ele><time>2026-08-20T09:50:53Z</time></trkpt><trkpt lat="59.1069421079" lon="30.4746149294"><ele>51.09</ele><time>2026-08-20T09:50:57Z</time></trkpt><trkpt lat="59.1071515717" lon="30.4745909572"><ele>51.09</ele><time>2026-08-20T09:51:14Z</time></trkpt><trkpt lat="59.1073362250" lon="30.4745736066"><ele>51.57</ele><time>2026-08-20T09:51:29Z</time></trkpt><trkpt lat="59.1074966546" lon="30.4744927213"><ele>51.57</ele><time>2026-08-20T09:51:44Z</time></trkpt><trkpt lat="59.1076386441" lon="30.4744679946"><ele>51.57</ele><time>2026-08-20T09:51:58Z</time></trkpt><trkpt lat="59.1077618580" lon="30.4744470399"><ele>51.57</ele><time>2026-08-20T09:52:13Z</time></trkpt><trkpt lat="59.1079003271" lon="30.4744213913"><ele>51.57</ele><time>2026-08-20T09:52:28Z</time></trkpt><trkpt lat="59.1080058552" lon="30.4743755423"><ele>51.57</ele><time>2026-08-20T09:52:40Z</time></trkpt><trkpt lat="59.1081147362" lon="30.4743432719"><ele>51.57</ele><time>2026-08-20T09:52:50Z</time></trkpt><trkpt lat="59.1082504392" lon="30.4743094929"><ele>52.05</ele><time>2026-08-20T09:53:02Z</time></trkpt><trkpt lat="59.1083330009" lon="30.4742978420"><ele>52.05</ele><time>2026-08-20T09:53:15Z</time></trkpt><trkpt lat="59.1083434783" lon="30.4743042961"><ele>52.05</ele><time>2026-08-20T09:53:32Z</time></trkpt><trkpt lat="59.1083458252" lon="30.4743119236"><ele>52.05</ele><time>2026-08-20T09:53:54Z</time></trkpt><trkpt lat="59.1083444841" lon="30.4743208084"><ele>52.05</ele><time>2026-08-20T09:54:16Z</time></trkpt><trkpt lat="59.1083713900" lon="30.4743046314"><ele>52.05</ele><time>2026-08-20T09:54:31Z</time></trkpt><trkpt lat="59.1083779279" lon="30.4742734507"><ele>52.05</ele><time>2026-08-20T09:54:56Z</time></trkpt><trkpt lat="59.1083795205" lon="30.4742553458"><ele>52.05</ele><time>2026-08-20T09:55:22Z</time></trkpt><trkpt lat="59.1083878186" lon="30.4742566030"><ele>52.05</ele><time>2026-08-20T09:55:50Z</time></trkpt><trkpt lat="59.1083910875" lon="30.4742457904"><ele>52.05</ele><time>2026-08-20T09:56:10Z</time></trkpt><trkpt lat="59.1083895788" lon="30.4742450360"><ele>52.05</ele><time>2026-08-20T09:56:29Z</time></trkpt><trkpt lat="59.1083873995" lon="30.4742456228"><ele>52.05</ele><time>2026-08-20T09:56:43Z</time></trkpt><trkpt lat="59.1083909199" lon="30.4742604587"><ele>52.05</ele><time>2026-08-20T09:57:09Z</time></trkpt><trkpt lat="59.1083884891" lon="30.4742483050"><ele>52.05</ele><time>2026-08-20T09:57:40Z</time></trkpt><trkpt lat="59.1083981283" lon="30.4742431920"><ele>52.05</ele><time>2026-08-20T09:58:22Z</time></trkpt><trkpt lat="59.1084012296" lon="30.4742311221"><ele>52.05</ele><time>2026-08-20T09:59:01Z</time></trkpt><trkpt lat="59.1083888244" lon="30.4742420185"><ele>52.05</ele><time>2026-08-20T09:59:17Z</time></trkpt><trkpt lat="59.1083727311" lon="30.4742250033"><ele>52.05</ele><time>2026-08-20T09:59:41Z</time></trkpt></trkseg></trk></gpx>